<?xml version="1.0" encoding="UTF-8" standalone="no" ?>
<gpx xmlns="http://www.topografix.com/GPX/1/1" xmlns:xsi="http://www.w3.org/2001/XMLSchema-instance" xsi:schemaLocation="http://www.topografix.com/GPX/1/1 http://www.topografix.com/GPX/1/1/gpx.xsd" version="1.1" creator="VisuGPX - https://www.visugpx.com">
  <metadata>
    <name>VTT pour asperges 16 mai 2021 (seul)</name>
    <desc><![CDATA[un secteur (de 2,7 km à 2,8 km) permet de relier le pré au chemin de Yolande, et au début il y a une zone d'asperges sauvages]]></desc>
  </metadata>
  <wpt lat="47.64429" lon="6.18347">
    <ele>232</ele>
    <name><![CDATA[0000256]]></name>
    <type><![CDATA[Point de départ]]></type>
  </wpt>
  <wpt lat="47.6446" lon="6.18331">
    <ele>236.1</ele>
    <name><![CDATA[0000257]]></name>
    <desc><![CDATA[<p><br /><h3>Nom: Segment: 1</h3><br />Heure de départ: 05/16/2021 10:31<br/>Heure d'arrivée: 05/16/2021 11:39<br/>Distance: 5,5km (01:08)<br/>Temps déplacement: 00:34<br/>Vitesse moyenne: 4,78 km/h<br/>Vitesse moyenne mouv.: 8,92 km/h<br/>Vitesse Max.: 26,54 km/h<br/>Altitude minimale: 224 m<br/>Altitude maximale: 289 m<br/>Vitesse de montée: 178 m/h<br/>Vitesse de descente: -307,4 m/h<br/>Gain d'altitude: 131 m<br/>Perte d'altitude: -96 m<br/>Temps de montée: 00:44<br/>Temps de descente: 00:18<br/></p>]]></desc>
    <type><![CDATA[Point d'arrivée]]></type>
  </wpt>
  <trk>
    <name><![CDATA[2021-05-16 10:31]]></name>
    <desc><![CDATA[<p>Heure de départ: 05/16/2021 10:31<br/>Heure d'arrivée: 05/16/2021 11:39<br/>Distance: 5,5 km (01:08)<br/>Temps déplacement: 00:34<br/>Vitesse moyenne: 4,78 km/h<br/>Vitesse moyenne mouv.: 9,43 km/h<br/>Vitesse Max.: 26,54 km/h<br/>Altitude minimale: 224 m<br/>Altitude maximale: 289 m<br/>Vitesse de montée: 155,5 m/h<br/>Vitesse de descente: -276,4 m/h<br/>Gain d'altitude: 119 m<br/>Perte d'altitude: -85 m<br/>Temps de montée: 00:46<br/>Temps de descente: 00:18<br/></p><hr align="center" width="480" style="height: 2px; width: 517px"/>]]></desc>
    <trkseg>
      <trkpt lat="47.64429" lon="6.18347">
        <ele>232</ele>
        <time>2021-05-16T08:31:00Z</time>
      </trkpt>
      <trkpt lat="47.64434" lon="6.18339">
        <ele>232</ele>
        <time>2021-05-16T08:31:04Z</time>
      </trkpt>
      <trkpt lat="47.64433" lon="6.18331">
        <ele>231</ele>
        <time>2021-05-16T08:31:06Z</time>
      </trkpt>
      <trkpt lat="47.64431" lon="6.18325">
        <ele>230.1</ele>
        <time>2021-05-16T08:31:09Z</time>
      </trkpt>
      <trkpt lat="47.64432" lon="6.18318">
        <ele>229.6</ele>
        <time>2021-05-16T08:31:18Z</time>
      </trkpt>
      <trkpt lat="47.64431" lon="6.18311">
        <ele>228.8</ele>
        <time>2021-05-16T08:31:23Z</time>
      </trkpt>
      <trkpt lat="47.64428" lon="6.18305">
        <ele>227.8</ele>
        <time>2021-05-16T08:31:26Z</time>
      </trkpt>
      <trkpt lat="47.64424" lon="6.18301">
        <ele>226.9</ele>
        <time>2021-05-16T08:31:28Z</time>
      </trkpt>
      <trkpt lat="47.6442" lon="6.18295">
        <ele>225.8</ele>
        <time>2021-05-16T08:31:30Z</time>
      </trkpt>
      <trkpt lat="47.64416" lon="6.18288">
        <ele>224.7</ele>
        <time>2021-05-16T08:31:32Z</time>
      </trkpt>
      <trkpt lat="47.64414" lon="6.1828">
        <ele>224.1</ele>
        <time>2021-05-16T08:31:34Z</time>
      </trkpt>
      <trkpt lat="47.64412" lon="6.18272">
        <ele>223.4</ele>
        <time>2021-05-16T08:31:37Z</time>
      </trkpt>
      <trkpt lat="47.64407" lon="6.18272">
        <ele>223.3</ele>
        <time>2021-05-16T08:31:40Z</time>
      </trkpt>
      <trkpt lat="47.64406" lon="6.18279">
        <ele>223.7</ele>
        <time>2021-05-16T08:31:41Z</time>
      </trkpt>
      <trkpt lat="47.6441" lon="6.18285">
        <ele>224.2</ele>
        <time>2021-05-16T08:31:44Z</time>
      </trkpt>
      <trkpt lat="47.6441" lon="6.18293">
        <ele>224.8</ele>
        <time>2021-05-16T08:31:47Z</time>
      </trkpt>
      <trkpt lat="47.64413" lon="6.183">
        <ele>225.4</ele>
        <time>2021-05-16T08:31:48Z</time>
      </trkpt>
      <trkpt lat="47.64417" lon="6.18306">
        <ele>226</ele>
        <time>2021-05-16T08:31:51Z</time>
      </trkpt>
      <trkpt lat="47.64422" lon="6.1831">
        <ele>227.3</ele>
        <time>2021-05-16T08:31:53Z</time>
      </trkpt>
      <trkpt lat="47.64427" lon="6.1831">
        <ele>228</ele>
        <time>2021-05-16T08:31:55Z</time>
      </trkpt>
      <trkpt lat="47.64431" lon="6.18306">
        <ele>228.3</ele>
        <time>2021-05-16T08:31:57Z</time>
      </trkpt>
      <trkpt lat="47.64434" lon="6.183">
        <ele>228.3</ele>
        <time>2021-05-16T08:31:59Z</time>
      </trkpt>
      <trkpt lat="47.64437" lon="6.18296">
        <ele>228.4</ele>
        <time>2021-05-16T08:32:01Z</time>
      </trkpt>
      <trkpt lat="47.6444" lon="6.1829">
        <ele>228.4</ele>
        <time>2021-05-16T08:32:03Z</time>
      </trkpt>
      <trkpt lat="47.64444" lon="6.18285">
        <ele>228.4</ele>
        <time>2021-05-16T08:32:05Z</time>
      </trkpt>
      <trkpt lat="47.64447" lon="6.1828">
        <ele>228.4</ele>
        <time>2021-05-16T08:32:07Z</time>
      </trkpt>
      <trkpt lat="47.64451" lon="6.18276">
        <ele>228.4</ele>
        <time>2021-05-16T08:32:09Z</time>
      </trkpt>
      <trkpt lat="47.64454" lon="6.18271">
        <ele>228.3</ele>
        <time>2021-05-16T08:32:11Z</time>
      </trkpt>
      <trkpt lat="47.64458" lon="6.18266">
        <ele>228.2</ele>
        <time>2021-05-16T08:32:14Z</time>
      </trkpt>
      <trkpt lat="47.64461" lon="6.18259">
        <ele>227.9</ele>
        <time>2021-05-16T08:32:16Z</time>
      </trkpt>
      <trkpt lat="47.64467" lon="6.18249">
        <ele>227.4</ele>
        <time>2021-05-16T08:32:17Z</time>
      </trkpt>
      <trkpt lat="47.64471" lon="6.1824">
        <ele>227.5</ele>
        <time>2021-05-16T08:32:20Z</time>
      </trkpt>
      <trkpt lat="47.64474" lon="6.18235">
        <ele>227.5</ele>
        <time>2021-05-16T08:32:20Z</time>
      </trkpt>
      <trkpt lat="47.64478" lon="6.18225">
        <ele>227.4</ele>
        <time>2021-05-16T08:32:22Z</time>
      </trkpt>
      <trkpt lat="47.64481" lon="6.18217">
        <ele>227.2</ele>
        <time>2021-05-16T08:32:24Z</time>
      </trkpt>
      <trkpt lat="47.64484" lon="6.1821">
        <ele>227.1</ele>
        <time>2021-05-16T08:32:27Z</time>
      </trkpt>
      <trkpt lat="47.64487" lon="6.18202">
        <ele>226.8</ele>
        <time>2021-05-16T08:32:29Z</time>
      </trkpt>
      <trkpt lat="47.6449" lon="6.18194">
        <ele>226.5</ele>
        <time>2021-05-16T08:32:31Z</time>
      </trkpt>
      <trkpt lat="47.64492" lon="6.18184">
        <ele>225.9</ele>
        <time>2021-05-16T08:32:33Z</time>
      </trkpt>
      <trkpt lat="47.64491" lon="6.18175">
        <ele>225.3</ele>
        <time>2021-05-16T08:32:34Z</time>
      </trkpt>
      <trkpt lat="47.64489" lon="6.18161">
        <ele>224.6</ele>
        <time>2021-05-16T08:32:37Z</time>
      </trkpt>
      <trkpt lat="47.64488" lon="6.18152">
        <ele>224.4</ele>
        <time>2021-05-16T08:32:38Z</time>
      </trkpt>
      <trkpt lat="47.64488" lon="6.18144">
        <ele>224.2</ele>
        <time>2021-05-16T08:32:40Z</time>
      </trkpt>
      <trkpt lat="47.64489" lon="6.18133">
        <ele>224</ele>
        <time>2021-05-16T08:32:41Z</time>
      </trkpt>
      <trkpt lat="47.6449" lon="6.18125">
        <ele>223.9</ele>
        <time>2021-05-16T08:32:43Z</time>
      </trkpt>
      <trkpt lat="47.64492" lon="6.18114">
        <ele>223.7</ele>
        <time>2021-05-16T08:32:45Z</time>
      </trkpt>
      <trkpt lat="47.64494" lon="6.18104">
        <ele>223.5</ele>
        <time>2021-05-16T08:32:47Z</time>
      </trkpt>
      <trkpt lat="47.64495" lon="6.18093">
        <ele>223.2</ele>
        <time>2021-05-16T08:32:49Z</time>
      </trkpt>
      <trkpt lat="47.64497" lon="6.18084">
        <ele>223</ele>
        <time>2021-05-16T08:32:51Z</time>
      </trkpt>
      <trkpt lat="47.64498" lon="6.18076">
        <ele>223</ele>
        <time>2021-05-16T08:32:52Z</time>
      </trkpt>
      <trkpt lat="47.645" lon="6.18066">
        <ele>223</ele>
        <time>2021-05-16T08:32:55Z</time>
      </trkpt>
      <trkpt lat="47.64502" lon="6.18058">
        <ele>223.4</ele>
        <time>2021-05-16T08:32:57Z</time>
      </trkpt>
      <trkpt lat="47.64504" lon="6.18052">
        <ele>223.6</ele>
        <time>2021-05-16T08:32:58Z</time>
      </trkpt>
      <trkpt lat="47.64507" lon="6.18044">
        <ele>224.2</ele>
        <time>2021-05-16T08:33:01Z</time>
      </trkpt>
      <trkpt lat="47.64511" lon="6.1804">
        <ele>224.8</ele>
        <time>2021-05-16T08:33:03Z</time>
      </trkpt>
      <trkpt lat="47.64516" lon="6.18037">
        <ele>225.5</ele>
        <time>2021-05-16T08:33:05Z</time>
      </trkpt>
      <trkpt lat="47.6452" lon="6.18034">
        <ele>226.1</ele>
        <time>2021-05-16T08:33:07Z</time>
      </trkpt>
      <trkpt lat="47.64526" lon="6.18031">
        <ele>226.9</ele>
        <time>2021-05-16T08:33:09Z</time>
      </trkpt>
      <trkpt lat="47.6453" lon="6.18028">
        <ele>227.4</ele>
        <time>2021-05-16T08:33:11Z</time>
      </trkpt>
      <trkpt lat="47.64532" lon="6.1802">
        <ele>227.5</ele>
        <time>2021-05-16T08:33:14Z</time>
      </trkpt>
      <trkpt lat="47.64534" lon="6.18011">
        <ele>227.5</ele>
        <time>2021-05-16T08:33:17Z</time>
      </trkpt>
      <trkpt lat="47.64536" lon="6.18005">
        <ele>227.6</ele>
        <time>2021-05-16T08:33:19Z</time>
      </trkpt>
      <trkpt lat="47.64539" lon="6.17999">
        <ele>227.6</ele>
        <time>2021-05-16T08:33:21Z</time>
      </trkpt>
      <trkpt lat="47.64541" lon="6.1799">
        <ele>227.3</ele>
        <time>2021-05-16T08:33:23Z</time>
      </trkpt>
      <trkpt lat="47.64543" lon="6.17984">
        <ele>227.2</ele>
        <time>2021-05-16T08:33:24Z</time>
      </trkpt>
      <trkpt lat="47.64545" lon="6.17975">
        <ele>226.8</ele>
        <time>2021-05-16T08:33:26Z</time>
      </trkpt>
      <trkpt lat="47.64548" lon="6.17962">
        <ele>226.2</ele>
        <time>2021-05-16T08:33:28Z</time>
      </trkpt>
      <trkpt lat="47.64552" lon="6.17949">
        <ele>225.6</ele>
        <time>2021-05-16T08:33:29Z</time>
      </trkpt>
      <trkpt lat="47.64557" lon="6.1794">
        <ele>225.2</ele>
        <time>2021-05-16T08:33:31Z</time>
      </trkpt>
      <trkpt lat="47.64563" lon="6.1793">
        <ele>224.7</ele>
        <time>2021-05-16T08:33:32Z</time>
      </trkpt>
      <trkpt lat="47.64569" lon="6.17922">
        <ele>224.1</ele>
        <time>2021-05-16T08:33:33Z</time>
      </trkpt>
      <trkpt lat="47.64577" lon="6.17913">
        <ele>223.9</ele>
        <time>2021-05-16T08:33:34Z</time>
      </trkpt>
      <trkpt lat="47.64583" lon="6.17905">
        <ele>224.1</ele>
        <time>2021-05-16T08:33:35Z</time>
      </trkpt>
      <trkpt lat="47.6459" lon="6.17898">
        <ele>224</ele>
        <time>2021-05-16T08:33:36Z</time>
      </trkpt>
      <trkpt lat="47.64597" lon="6.17893">
        <ele>223.9</ele>
        <time>2021-05-16T08:33:37Z</time>
      </trkpt>
      <trkpt lat="47.64603" lon="6.17889">
        <ele>223.7</ele>
        <time>2021-05-16T08:33:38Z</time>
      </trkpt>
      <trkpt lat="47.64609" lon="6.17886">
        <ele>223.5</ele>
        <time>2021-05-16T08:33:39Z</time>
      </trkpt>
      <trkpt lat="47.64615" lon="6.17885">
        <ele>223.3</ele>
        <time>2021-05-16T08:33:40Z</time>
      </trkpt>
      <trkpt lat="47.64621" lon="6.17886">
        <ele>223.1</ele>
        <time>2021-05-16T08:33:41Z</time>
      </trkpt>
      <trkpt lat="47.64626" lon="6.17888">
        <ele>223</ele>
        <time>2021-05-16T08:33:42Z</time>
      </trkpt>
      <trkpt lat="47.64632" lon="6.1789">
        <ele>222.8</ele>
        <time>2021-05-16T08:33:43Z</time>
      </trkpt>
      <trkpt lat="47.64637" lon="6.17893">
        <ele>222.6</ele>
        <time>2021-05-16T08:33:44Z</time>
      </trkpt>
      <trkpt lat="47.64642" lon="6.17896">
        <ele>222.5</ele>
        <time>2021-05-16T08:33:45Z</time>
      </trkpt>
      <trkpt lat="47.64646" lon="6.17899">
        <ele>222.4</ele>
        <time>2021-05-16T08:33:46Z</time>
      </trkpt>
      <trkpt lat="47.6465" lon="6.17901">
        <ele>222.3</ele>
        <time>2021-05-16T08:33:47Z</time>
      </trkpt>
      <trkpt lat="47.64657" lon="6.17906">
        <ele>222.1</ele>
        <time>2021-05-16T08:33:49Z</time>
      </trkpt>
      <trkpt lat="47.64665" lon="6.17911">
        <ele>222</ele>
        <time>2021-05-16T08:33:51Z</time>
      </trkpt>
      <trkpt lat="47.64671" lon="6.17916">
        <ele>221.8</ele>
        <time>2021-05-16T08:33:53Z</time>
      </trkpt>
      <trkpt lat="47.64678" lon="6.17921">
        <ele>222.2</ele>
        <time>2021-05-16T08:33:57Z</time>
      </trkpt>
      <trkpt lat="47.64681" lon="6.17925">
        <ele>222.6</ele>
        <time>2021-05-16T08:33:58Z</time>
      </trkpt>
      <trkpt lat="47.64688" lon="6.17934">
        <ele>223.4</ele>
        <time>2021-05-16T08:34:00Z</time>
      </trkpt>
      <trkpt lat="47.64691" lon="6.1794">
        <ele>223.8</ele>
        <time>2021-05-16T08:34:01Z</time>
      </trkpt>
      <trkpt lat="47.64695" lon="6.17946">
        <ele>224.2</ele>
        <time>2021-05-16T08:34:02Z</time>
      </trkpt>
      <trkpt lat="47.64701" lon="6.17956">
        <ele>224.7</ele>
        <time>2021-05-16T08:34:04Z</time>
      </trkpt>
      <trkpt lat="47.64707" lon="6.17964">
        <ele>224.9</ele>
        <time>2021-05-16T08:34:06Z</time>
      </trkpt>
      <trkpt lat="47.64711" lon="6.17971">
        <ele>225</ele>
        <time>2021-05-16T08:34:07Z</time>
      </trkpt>
      <trkpt lat="47.64715" lon="6.17977">
        <ele>225.1</ele>
        <time>2021-05-16T08:34:09Z</time>
      </trkpt>
      <trkpt lat="47.64718" lon="6.17983">
        <ele>225.1</ele>
        <time>2021-05-16T08:34:10Z</time>
      </trkpt>
      <trkpt lat="47.64721" lon="6.17988">
        <ele>225.1</ele>
        <time>2021-05-16T08:34:11Z</time>
      </trkpt>
      <trkpt lat="47.64724" lon="6.17994">
        <ele>225</ele>
        <time>2021-05-16T08:34:13Z</time>
      </trkpt>
      <trkpt lat="47.64728" lon="6.18">
        <ele>224.8</ele>
        <time>2021-05-16T08:34:14Z</time>
      </trkpt>
      <trkpt lat="47.64731" lon="6.18006">
        <ele>225.3</ele>
        <time>2021-05-16T08:34:16Z</time>
      </trkpt>
      <trkpt lat="47.64735" lon="6.18015">
        <ele>226.1</ele>
        <time>2021-05-16T08:34:18Z</time>
      </trkpt>
      <trkpt lat="47.64739" lon="6.18023">
        <ele>226.9</ele>
        <time>2021-05-16T08:34:20Z</time>
      </trkpt>
      <trkpt lat="47.64744" lon="6.18031">
        <ele>227.5</ele>
        <time>2021-05-16T08:34:22Z</time>
      </trkpt>
      <trkpt lat="47.64748" lon="6.18039">
        <ele>228.3</ele>
        <time>2021-05-16T08:34:24Z</time>
      </trkpt>
      <trkpt lat="47.64754" lon="6.18047">
        <ele>229.2</ele>
        <time>2021-05-16T08:34:26Z</time>
      </trkpt>
      <trkpt lat="47.64759" lon="6.18055">
        <ele>230.1</ele>
        <time>2021-05-16T08:34:28Z</time>
      </trkpt>
      <trkpt lat="47.64765" lon="6.1806">
        <ele>230.5</ele>
        <time>2021-05-16T08:34:30Z</time>
      </trkpt>
      <trkpt lat="47.64769" lon="6.18065">
        <ele>230.8</ele>
        <time>2021-05-16T08:34:55Z</time>
      </trkpt>
      <trkpt lat="47.64774" lon="6.18067">
        <ele>230.6</ele>
        <time>2021-05-16T08:34:58Z</time>
      </trkpt>
      <trkpt lat="47.64779" lon="6.18069">
        <ele>230.3</ele>
        <time>2021-05-16T08:35:00Z</time>
      </trkpt>
      <trkpt lat="47.64785" lon="6.18072">
        <ele>230.1</ele>
        <time>2021-05-16T08:35:03Z</time>
      </trkpt>
      <trkpt lat="47.64789" lon="6.18073">
        <ele>229.7</ele>
        <time>2021-05-16T08:35:04Z</time>
      </trkpt>
      <trkpt lat="47.64794" lon="6.18075">
        <ele>229.3</ele>
        <time>2021-05-16T08:35:06Z</time>
      </trkpt>
      <trkpt lat="47.64801" lon="6.18076">
        <ele>228.7</ele>
        <time>2021-05-16T08:35:09Z</time>
      </trkpt>
      <trkpt lat="47.64806" lon="6.18077">
        <ele>228.1</ele>
        <time>2021-05-16T08:35:11Z</time>
      </trkpt>
      <trkpt lat="47.64812" lon="6.18078">
        <ele>227.5</ele>
        <time>2021-05-16T08:35:13Z</time>
      </trkpt>
      <trkpt lat="47.64818" lon="6.18079">
        <ele>226.8</ele>
        <time>2021-05-16T08:35:15Z</time>
      </trkpt>
      <trkpt lat="47.64823" lon="6.18079">
        <ele>226.2</ele>
        <time>2021-05-16T08:35:17Z</time>
      </trkpt>
      <trkpt lat="47.64827" lon="6.1808">
        <ele>225.7</ele>
        <time>2021-05-16T08:35:18Z</time>
      </trkpt>
      <trkpt lat="47.64834" lon="6.18081">
        <ele>225</ele>
        <time>2021-05-16T08:35:21Z</time>
      </trkpt>
      <trkpt lat="47.6484" lon="6.18081">
        <ele>225.1</ele>
        <time>2021-05-16T08:35:23Z</time>
      </trkpt>
      <trkpt lat="47.64845" lon="6.18082">
        <ele>225.3</ele>
        <time>2021-05-16T08:35:24Z</time>
      </trkpt>
      <trkpt lat="47.64851" lon="6.18084">
        <ele>225.5</ele>
        <time>2021-05-16T08:35:26Z</time>
      </trkpt>
      <trkpt lat="47.64858" lon="6.18086">
        <ele>226</ele>
        <time>2021-05-16T08:35:28Z</time>
      </trkpt>
      <trkpt lat="47.64866" lon="6.18088">
        <ele>226.4</ele>
        <time>2021-05-16T08:35:30Z</time>
      </trkpt>
      <trkpt lat="47.64874" lon="6.1809">
        <ele>226.9</ele>
        <time>2021-05-16T08:35:32Z</time>
      </trkpt>
      <trkpt lat="47.64882" lon="6.18092">
        <ele>227.3</ele>
        <time>2021-05-16T08:35:34Z</time>
      </trkpt>
      <trkpt lat="47.64889" lon="6.18094">
        <ele>227.6</ele>
        <time>2021-05-16T08:35:36Z</time>
      </trkpt>
      <trkpt lat="47.64894" lon="6.18096">
        <ele>227.9</ele>
        <time>2021-05-16T08:35:38Z</time>
      </trkpt>
      <trkpt lat="47.64899" lon="6.18094">
        <ele>227.9</ele>
        <time>2021-05-16T08:36:55Z</time>
      </trkpt>
      <trkpt lat="47.64907" lon="6.18096">
        <ele>228.1</ele>
        <time>2021-05-16T08:36:58Z</time>
      </trkpt>
      <trkpt lat="47.64912" lon="6.18096">
        <ele>228.3</ele>
        <time>2021-05-16T08:36:59Z</time>
      </trkpt>
      <trkpt lat="47.64919" lon="6.18097">
        <ele>228.6</ele>
        <time>2021-05-16T08:37:02Z</time>
      </trkpt>
      <trkpt lat="47.64926" lon="6.18099">
        <ele>229.1</ele>
        <time>2021-05-16T08:37:04Z</time>
      </trkpt>
      <trkpt lat="47.64933" lon="6.18099">
        <ele>229.4</ele>
        <time>2021-05-16T08:37:06Z</time>
      </trkpt>
      <trkpt lat="47.6494" lon="6.181">
        <ele>229.8</ele>
        <time>2021-05-16T08:37:08Z</time>
      </trkpt>
      <trkpt lat="47.64947" lon="6.181">
        <ele>230</ele>
        <time>2021-05-16T08:37:10Z</time>
      </trkpt>
      <trkpt lat="47.64952" lon="6.18099">
        <ele>230.2</ele>
        <time>2021-05-16T08:37:11Z</time>
      </trkpt>
      <trkpt lat="47.64958" lon="6.18099">
        <ele>230.5</ele>
        <time>2021-05-16T08:37:12Z</time>
      </trkpt>
      <trkpt lat="47.64963" lon="6.18099">
        <ele>230.6</ele>
        <time>2021-05-16T08:37:14Z</time>
      </trkpt>
      <trkpt lat="47.6497" lon="6.18098">
        <ele>230.8</ele>
        <time>2021-05-16T08:37:15Z</time>
      </trkpt>
      <trkpt lat="47.64975" lon="6.18097">
        <ele>231</ele>
        <time>2021-05-16T08:37:16Z</time>
      </trkpt>
      <trkpt lat="47.6498" lon="6.18097">
        <ele>231.1</ele>
        <time>2021-05-16T08:37:17Z</time>
      </trkpt>
      <trkpt lat="47.64986" lon="6.18096">
        <ele>231.2</ele>
        <time>2021-05-16T08:37:19Z</time>
      </trkpt>
      <trkpt lat="47.64994" lon="6.18095">
        <ele>231.5</ele>
        <time>2021-05-16T08:37:21Z</time>
      </trkpt>
      <trkpt lat="47.65001" lon="6.18095">
        <ele>231.7</ele>
        <time>2021-05-16T08:37:23Z</time>
      </trkpt>
      <trkpt lat="47.65008" lon="6.18095">
        <ele>231.8</ele>
        <time>2021-05-16T08:37:24Z</time>
      </trkpt>
      <trkpt lat="47.65012" lon="6.18096">
        <ele>232.1</ele>
        <time>2021-05-16T08:37:26Z</time>
      </trkpt>
      <trkpt lat="47.65019" lon="6.18097">
        <ele>232.4</ele>
        <time>2021-05-16T08:37:28Z</time>
      </trkpt>
      <trkpt lat="47.65025" lon="6.18098">
        <ele>232.7</ele>
        <time>2021-05-16T08:37:30Z</time>
      </trkpt>
      <trkpt lat="47.65031" lon="6.18099">
        <ele>232.9</ele>
        <time>2021-05-16T08:37:32Z</time>
      </trkpt>
      <trkpt lat="47.65037" lon="6.181">
        <ele>233.1</ele>
        <time>2021-05-16T08:37:34Z</time>
      </trkpt>
      <trkpt lat="47.65038" lon="6.18093">
        <ele>232.1</ele>
        <time>2021-05-16T08:37:37Z</time>
      </trkpt>
      <trkpt lat="47.65033" lon="6.18093">
        <ele>231.9</ele>
        <time>2021-05-16T08:37:40Z</time>
      </trkpt>
      <trkpt lat="47.65029" lon="6.18094">
        <ele>232.1</ele>
        <time>2021-05-16T08:37:44Z</time>
      </trkpt>
      <trkpt lat="47.65022" lon="6.18094">
        <ele>232</ele>
        <time>2021-05-16T08:37:47Z</time>
      </trkpt>
      <trkpt lat="47.65015" lon="6.18094">
        <ele>231.9</ele>
        <time>2021-05-16T08:37:49Z</time>
      </trkpt>
      <trkpt lat="47.65007" lon="6.18095">
        <ele>231.8</ele>
        <time>2021-05-16T08:37:51Z</time>
      </trkpt>
      <trkpt lat="47.64999" lon="6.18095">
        <ele>231.7</ele>
        <time>2021-05-16T08:37:53Z</time>
      </trkpt>
      <trkpt lat="47.64991" lon="6.18095">
        <ele>231.4</ele>
        <time>2021-05-16T08:37:55Z</time>
      </trkpt>
      <trkpt lat="47.64984" lon="6.18097">
        <ele>231.3</ele>
        <time>2021-05-16T08:37:57Z</time>
      </trkpt>
      <trkpt lat="47.6498" lon="6.18097">
        <ele>231.2</ele>
        <time>2021-05-16T08:37:58Z</time>
      </trkpt>
      <trkpt lat="47.64973" lon="6.18098">
        <ele>231</ele>
        <time>2021-05-16T08:38:00Z</time>
      </trkpt>
      <trkpt lat="47.64967" lon="6.18099">
        <ele>230.9</ele>
        <time>2021-05-16T08:38:02Z</time>
      </trkpt>
      <trkpt lat="47.64962" lon="6.181">
        <ele>230.8</ele>
        <time>2021-05-16T08:38:04Z</time>
      </trkpt>
      <trkpt lat="47.64955" lon="6.18101">
        <ele>230.6</ele>
        <time>2021-05-16T08:38:06Z</time>
      </trkpt>
      <trkpt lat="47.64949" lon="6.18101">
        <ele>230.4</ele>
        <time>2021-05-16T08:38:07Z</time>
      </trkpt>
      <trkpt lat="47.64945" lon="6.18101">
        <ele>230.1</ele>
        <time>2021-05-16T08:38:09Z</time>
      </trkpt>
      <trkpt lat="47.64938" lon="6.181">
        <ele>229.7</ele>
        <time>2021-05-16T08:38:11Z</time>
      </trkpt>
      <trkpt lat="47.64931" lon="6.18099">
        <ele>229.3</ele>
        <time>2021-05-16T08:38:13Z</time>
      </trkpt>
      <trkpt lat="47.64923" lon="6.18098">
        <ele>228.8</ele>
        <time>2021-05-16T08:38:15Z</time>
      </trkpt>
      <trkpt lat="47.64918" lon="6.18097">
        <ele>228.5</ele>
        <time>2021-05-16T08:38:16Z</time>
      </trkpt>
      <trkpt lat="47.64913" lon="6.18096">
        <ele>228.3</ele>
        <time>2021-05-16T08:38:17Z</time>
      </trkpt>
      <trkpt lat="47.64905" lon="6.18094">
        <ele>227.9</ele>
        <time>2021-05-16T08:38:19Z</time>
      </trkpt>
      <trkpt lat="47.64898" lon="6.18092">
        <ele>227.6</ele>
        <time>2021-05-16T08:38:21Z</time>
      </trkpt>
      <trkpt lat="47.6489" lon="6.18091">
        <ele>227.3</ele>
        <time>2021-05-16T08:38:23Z</time>
      </trkpt>
      <trkpt lat="47.64883" lon="6.18089">
        <ele>226.9</ele>
        <time>2021-05-16T08:38:25Z</time>
      </trkpt>
      <trkpt lat="47.64877" lon="6.18087">
        <ele>226.5</ele>
        <time>2021-05-16T08:38:27Z</time>
      </trkpt>
      <trkpt lat="47.64872" lon="6.18086">
        <ele>226.2</ele>
        <time>2021-05-16T08:38:28Z</time>
      </trkpt>
      <trkpt lat="47.64868" lon="6.18084">
        <ele>226</ele>
        <time>2021-05-16T08:38:29Z</time>
      </trkpt>
      <trkpt lat="47.64862" lon="6.18084">
        <ele>225.8</ele>
        <time>2021-05-16T08:38:30Z</time>
      </trkpt>
      <trkpt lat="47.64858" lon="6.18087">
        <ele>226.1</ele>
        <time>2021-05-16T08:38:32Z</time>
      </trkpt>
      <trkpt lat="47.64855" lon="6.18093">
        <ele>226.9</ele>
        <time>2021-05-16T08:38:34Z</time>
      </trkpt>
      <trkpt lat="47.6486" lon="6.18096">
        <ele>227.3</ele>
        <time>2021-05-16T08:38:37Z</time>
      </trkpt>
      <trkpt lat="47.64864" lon="6.181">
        <ele>228</ele>
        <time>2021-05-16T08:38:40Z</time>
      </trkpt>
      <trkpt lat="47.64869" lon="6.18105">
        <ele>228.6</ele>
        <time>2021-05-16T08:38:43Z</time>
      </trkpt>
      <trkpt lat="47.64873" lon="6.18109">
        <ele>229.2</ele>
        <time>2021-05-16T08:38:46Z</time>
      </trkpt>
      <trkpt lat="47.64879" lon="6.18113">
        <ele>229.8</ele>
        <time>2021-05-16T08:38:50Z</time>
      </trkpt>
      <trkpt lat="47.64884" lon="6.18115">
        <ele>230.1</ele>
        <time>2021-05-16T08:38:54Z</time>
      </trkpt>
      <trkpt lat="47.64889" lon="6.18117">
        <ele>230.4</ele>
        <time>2021-05-16T08:38:58Z</time>
      </trkpt>
      <trkpt lat="47.64893" lon="6.18122">
        <ele>230.9</ele>
        <time>2021-05-16T08:39:03Z</time>
      </trkpt>
      <trkpt lat="47.64897" lon="6.18125">
        <ele>231.3</ele>
        <time>2021-05-16T08:39:11Z</time>
      </trkpt>
      <trkpt lat="47.64901" lon="6.18129">
        <ele>231.9</ele>
        <time>2021-05-16T08:39:16Z</time>
      </trkpt>
      <trkpt lat="47.64906" lon="6.18137">
        <ele>232.8</ele>
        <time>2021-05-16T08:39:19Z</time>
      </trkpt>
      <trkpt lat="47.64909" lon="6.18142">
        <ele>233.3</ele>
        <time>2021-05-16T08:39:22Z</time>
      </trkpt>
      <trkpt lat="47.64913" lon="6.18144">
        <ele>233.6</ele>
        <time>2021-05-16T08:39:27Z</time>
      </trkpt>
      <trkpt lat="47.64917" lon="6.18149">
        <ele>234.2</ele>
        <time>2021-05-16T08:39:32Z</time>
      </trkpt>
      <trkpt lat="47.64922" lon="6.1815">
        <ele>234.5</ele>
        <time>2021-05-16T08:39:46Z</time>
      </trkpt>
      <trkpt lat="47.64927" lon="6.18151">
        <ele>234.9</ele>
        <time>2021-05-16T08:39:53Z</time>
      </trkpt>
      <trkpt lat="47.64932" lon="6.18151">
        <ele>235.3</ele>
        <time>2021-05-16T08:39:59Z</time>
      </trkpt>
      <trkpt lat="47.64937" lon="6.18151">
        <ele>235.6</ele>
        <time>2021-05-16T08:40:04Z</time>
      </trkpt>
      <trkpt lat="47.64941" lon="6.18151">
        <ele>235.9</ele>
        <time>2021-05-16T08:40:10Z</time>
      </trkpt>
      <trkpt lat="47.64946" lon="6.18152">
        <ele>236.4</ele>
        <time>2021-05-16T08:40:15Z</time>
      </trkpt>
      <trkpt lat="47.64951" lon="6.18152">
        <ele>236.7</ele>
        <time>2021-05-16T08:40:19Z</time>
      </trkpt>
      <trkpt lat="47.64956" lon="6.18154">
        <ele>237.2</ele>
        <time>2021-05-16T08:40:22Z</time>
      </trkpt>
      <trkpt lat="47.6496" lon="6.18158">
        <ele>238</ele>
        <time>2021-05-16T08:40:25Z</time>
      </trkpt>
      <trkpt lat="47.64964" lon="6.18161">
        <ele>238.7</ele>
        <time>2021-05-16T08:40:29Z</time>
      </trkpt>
      <trkpt lat="47.6497" lon="6.18163">
        <ele>239.3</ele>
        <time>2021-05-16T08:40:34Z</time>
      </trkpt>
      <trkpt lat="47.64973" lon="6.18169">
        <ele>240.2</ele>
        <time>2021-05-16T08:40:39Z</time>
      </trkpt>
      <trkpt lat="47.64974" lon="6.18176">
        <ele>241.1</ele>
        <time>2021-05-16T08:40:45Z</time>
      </trkpt>
      <trkpt lat="47.64975" lon="6.18183">
        <ele>241.8</ele>
        <time>2021-05-16T08:40:49Z</time>
      </trkpt>
      <trkpt lat="47.64976" lon="6.18191">
        <ele>242.7</ele>
        <time>2021-05-16T08:40:52Z</time>
      </trkpt>
      <trkpt lat="47.64977" lon="6.18198">
        <ele>243.5</ele>
        <time>2021-05-16T08:40:56Z</time>
      </trkpt>
      <trkpt lat="47.6498" lon="6.18204">
        <ele>244.1</ele>
        <time>2021-05-16T08:41:00Z</time>
      </trkpt>
      <trkpt lat="47.64983" lon="6.1821">
        <ele>244.8</ele>
        <time>2021-05-16T08:41:04Z</time>
      </trkpt>
      <trkpt lat="47.64984" lon="6.18216">
        <ele>245.5</ele>
        <time>2021-05-16T08:41:08Z</time>
      </trkpt>
      <trkpt lat="47.64985" lon="6.18224">
        <ele>246.2</ele>
        <time>2021-05-16T08:41:12Z</time>
      </trkpt>
      <trkpt lat="47.64987" lon="6.1823">
        <ele>246.9</ele>
        <time>2021-05-16T08:41:16Z</time>
      </trkpt>
      <trkpt lat="47.64989" lon="6.18237">
        <ele>247.5</ele>
        <time>2021-05-16T08:41:20Z</time>
      </trkpt>
      <trkpt lat="47.64993" lon="6.18242">
        <ele>248.1</ele>
        <time>2021-05-16T08:41:25Z</time>
      </trkpt>
      <trkpt lat="47.64996" lon="6.18248">
        <ele>248.7</ele>
        <time>2021-05-16T08:41:30Z</time>
      </trkpt>
      <trkpt lat="47.64997" lon="6.18255">
        <ele>249.2</ele>
        <time>2021-05-16T08:41:32Z</time>
      </trkpt>
      <trkpt lat="47.64997" lon="6.18262">
        <ele>249.6</ele>
        <time>2021-05-16T08:41:37Z</time>
      </trkpt>
      <trkpt lat="47.64999" lon="6.18268">
        <ele>250.1</ele>
        <time>2021-05-16T08:41:40Z</time>
      </trkpt>
      <trkpt lat="47.65001" lon="6.18274">
        <ele>250.5</ele>
        <time>2021-05-16T08:41:43Z</time>
      </trkpt>
      <trkpt lat="47.65004" lon="6.18281">
        <ele>251</ele>
        <time>2021-05-16T08:41:49Z</time>
      </trkpt>
      <trkpt lat="47.65004" lon="6.18289">
        <ele>251.5</ele>
        <time>2021-05-16T08:41:53Z</time>
      </trkpt>
      <trkpt lat="47.65006" lon="6.18297">
        <ele>252</ele>
        <time>2021-05-16T08:41:58Z</time>
      </trkpt>
      <trkpt lat="47.65002" lon="6.18303">
        <ele>252.3</ele>
        <time>2021-05-16T08:42:03Z</time>
      </trkpt>
      <trkpt lat="47.64999" lon="6.18309">
        <ele>252.5</ele>
        <time>2021-05-16T08:42:08Z</time>
      </trkpt>
      <trkpt lat="47.64996" lon="6.18314">
        <ele>252.8</ele>
        <time>2021-05-16T08:42:12Z</time>
      </trkpt>
      <trkpt lat="47.64998" lon="6.18321">
        <ele>253.2</ele>
        <time>2021-05-16T08:42:16Z</time>
      </trkpt>
      <trkpt lat="47.65003" lon="6.18323">
        <ele>253.5</ele>
        <time>2021-05-16T08:42:20Z</time>
      </trkpt>
      <trkpt lat="47.65007" lon="6.18326">
        <ele>253.8</ele>
        <time>2021-05-16T08:42:24Z</time>
      </trkpt>
      <trkpt lat="47.65012" lon="6.18328">
        <ele>254</ele>
        <time>2021-05-16T08:42:27Z</time>
      </trkpt>
      <trkpt lat="47.65016" lon="6.18329">
        <ele>254.1</ele>
        <time>2021-05-16T08:42:29Z</time>
      </trkpt>
      <trkpt lat="47.65022" lon="6.1833">
        <ele>254.4</ele>
        <time>2021-05-16T08:42:33Z</time>
      </trkpt>
      <trkpt lat="47.65027" lon="6.18333">
        <ele>254.6</ele>
        <time>2021-05-16T08:42:36Z</time>
      </trkpt>
      <trkpt lat="47.65031" lon="6.18335">
        <ele>254.8</ele>
        <time>2021-05-16T08:42:39Z</time>
      </trkpt>
      <trkpt lat="47.65036" lon="6.18338">
        <ele>254.9</ele>
        <time>2021-05-16T08:42:41Z</time>
      </trkpt>
      <trkpt lat="47.65041" lon="6.18341">
        <ele>255.1</ele>
        <time>2021-05-16T08:42:44Z</time>
      </trkpt>
      <trkpt lat="47.65046" lon="6.18346">
        <ele>255.3</ele>
        <time>2021-05-16T08:42:48Z</time>
      </trkpt>
      <trkpt lat="47.6505" lon="6.1835">
        <ele>255.5</ele>
        <time>2021-05-16T08:42:50Z</time>
      </trkpt>
      <trkpt lat="47.65055" lon="6.18354">
        <ele>255.6</ele>
        <time>2021-05-16T08:42:53Z</time>
      </trkpt>
      <trkpt lat="47.65059" lon="6.18358">
        <ele>255.8</ele>
        <time>2021-05-16T08:42:56Z</time>
      </trkpt>
      <trkpt lat="47.65063" lon="6.1836">
        <ele>255.9</ele>
        <time>2021-05-16T08:42:58Z</time>
      </trkpt>
      <trkpt lat="47.65068" lon="6.18364">
        <ele>256.1</ele>
        <time>2021-05-16T08:43:01Z</time>
      </trkpt>
      <trkpt lat="47.65072" lon="6.18368">
        <ele>256.2</ele>
        <time>2021-05-16T08:43:04Z</time>
      </trkpt>
      <trkpt lat="47.65077" lon="6.18372">
        <ele>256.3</ele>
        <time>2021-05-16T08:43:08Z</time>
      </trkpt>
      <trkpt lat="47.65081" lon="6.18377">
        <ele>256.5</ele>
        <time>2021-05-16T08:43:10Z</time>
      </trkpt>
      <trkpt lat="47.65086" lon="6.18383">
        <ele>256.6</ele>
        <time>2021-05-16T08:43:14Z</time>
      </trkpt>
      <trkpt lat="47.65089" lon="6.18387">
        <ele>256.8</ele>
        <time>2021-05-16T08:43:17Z</time>
      </trkpt>
      <trkpt lat="47.65094" lon="6.18391">
        <ele>257</ele>
        <time>2021-05-16T08:43:20Z</time>
      </trkpt>
      <trkpt lat="47.65098" lon="6.18396">
        <ele>257.1</ele>
        <time>2021-05-16T08:43:22Z</time>
      </trkpt>
      <trkpt lat="47.65103" lon="6.184">
        <ele>257.3</ele>
        <time>2021-05-16T08:43:27Z</time>
      </trkpt>
      <trkpt lat="47.65107" lon="6.18405">
        <ele>257.4</ele>
        <time>2021-05-16T08:43:30Z</time>
      </trkpt>
      <trkpt lat="47.65112" lon="6.18409">
        <ele>257.6</ele>
        <time>2021-05-16T08:43:34Z</time>
      </trkpt>
      <trkpt lat="47.65117" lon="6.18412">
        <ele>257.8</ele>
        <time>2021-05-16T08:43:38Z</time>
      </trkpt>
      <trkpt lat="47.65122" lon="6.18415">
        <ele>257.9</ele>
        <time>2021-05-16T08:43:41Z</time>
      </trkpt>
      <trkpt lat="47.65127" lon="6.18418">
        <ele>258.1</ele>
        <time>2021-05-16T08:43:44Z</time>
      </trkpt>
      <trkpt lat="47.65133" lon="6.18422">
        <ele>258.3</ele>
        <time>2021-05-16T08:43:46Z</time>
      </trkpt>
      <trkpt lat="47.65138" lon="6.18426">
        <ele>258.5</ele>
        <time>2021-05-16T08:43:50Z</time>
      </trkpt>
      <trkpt lat="47.65142" lon="6.1843">
        <ele>258.6</ele>
        <time>2021-05-16T08:43:52Z</time>
      </trkpt>
      <trkpt lat="47.65146" lon="6.18433">
        <ele>258.8</ele>
        <time>2021-05-16T08:43:54Z</time>
      </trkpt>
      <trkpt lat="47.6515" lon="6.18437">
        <ele>258.9</ele>
        <time>2021-05-16T08:43:58Z</time>
      </trkpt>
      <trkpt lat="47.65155" lon="6.18442">
        <ele>259.1</ele>
        <time>2021-05-16T08:44:01Z</time>
      </trkpt>
      <trkpt lat="47.65159" lon="6.18447">
        <ele>259.2</ele>
        <time>2021-05-16T08:44:03Z</time>
      </trkpt>
      <trkpt lat="47.65163" lon="6.18452">
        <ele>259.4</ele>
        <time>2021-05-16T08:44:06Z</time>
      </trkpt>
      <trkpt lat="47.65167" lon="6.18456">
        <ele>259.5</ele>
        <time>2021-05-16T08:44:09Z</time>
      </trkpt>
      <trkpt lat="47.65171" lon="6.18461">
        <ele>259.7</ele>
        <time>2021-05-16T08:44:12Z</time>
      </trkpt>
      <trkpt lat="47.65175" lon="6.18467">
        <ele>259.9</ele>
        <time>2021-05-16T08:44:15Z</time>
      </trkpt>
      <trkpt lat="47.65178" lon="6.18474">
        <ele>260.1</ele>
        <time>2021-05-16T08:44:18Z</time>
      </trkpt>
      <trkpt lat="47.65181" lon="6.1848">
        <ele>260.3</ele>
        <time>2021-05-16T08:44:21Z</time>
      </trkpt>
      <trkpt lat="47.65184" lon="6.18485">
        <ele>260.5</ele>
        <time>2021-05-16T08:44:23Z</time>
      </trkpt>
      <trkpt lat="47.65188" lon="6.18491">
        <ele>260.7</ele>
        <time>2021-05-16T08:44:26Z</time>
      </trkpt>
      <trkpt lat="47.65191" lon="6.18496">
        <ele>260.8</ele>
        <time>2021-05-16T08:44:29Z</time>
      </trkpt>
      <trkpt lat="47.65194" lon="6.18503">
        <ele>261.1</ele>
        <time>2021-05-16T08:44:32Z</time>
      </trkpt>
      <trkpt lat="47.65197" lon="6.18509">
        <ele>261.3</ele>
        <time>2021-05-16T08:44:35Z</time>
      </trkpt>
      <trkpt lat="47.65201" lon="6.18515">
        <ele>261.6</ele>
        <time>2021-05-16T08:44:37Z</time>
      </trkpt>
      <trkpt lat="47.65204" lon="6.18521">
        <ele>261.9</ele>
        <time>2021-05-16T08:44:40Z</time>
      </trkpt>
      <trkpt lat="47.65207" lon="6.18529">
        <ele>262.2</ele>
        <time>2021-05-16T08:44:44Z</time>
      </trkpt>
      <trkpt lat="47.6521" lon="6.18536">
        <ele>262.4</ele>
        <time>2021-05-16T08:44:46Z</time>
      </trkpt>
      <trkpt lat="47.65213" lon="6.18543">
        <ele>262.7</ele>
        <time>2021-05-16T08:44:49Z</time>
      </trkpt>
      <trkpt lat="47.65216" lon="6.18549">
        <ele>263</ele>
        <time>2021-05-16T08:44:52Z</time>
      </trkpt>
      <trkpt lat="47.65219" lon="6.18555">
        <ele>263.2</ele>
        <time>2021-05-16T08:44:54Z</time>
      </trkpt>
      <trkpt lat="47.65222" lon="6.18561">
        <ele>263.5</ele>
        <time>2021-05-16T08:44:57Z</time>
      </trkpt>
      <trkpt lat="47.65225" lon="6.18568">
        <ele>263.7</ele>
        <time>2021-05-16T08:45:00Z</time>
      </trkpt>
      <trkpt lat="47.65228" lon="6.18575">
        <ele>264</ele>
        <time>2021-05-16T08:45:03Z</time>
      </trkpt>
      <trkpt lat="47.65231" lon="6.18582">
        <ele>264.3</ele>
        <time>2021-05-16T08:45:06Z</time>
      </trkpt>
      <trkpt lat="47.65234" lon="6.18588">
        <ele>264.4</ele>
        <time>2021-05-16T08:45:09Z</time>
      </trkpt>
      <trkpt lat="47.65236" lon="6.18594">
        <ele>264.5</ele>
        <time>2021-05-16T08:45:12Z</time>
      </trkpt>
      <trkpt lat="47.6524" lon="6.18599">
        <ele>264.6</ele>
        <time>2021-05-16T08:45:14Z</time>
      </trkpt>
      <trkpt lat="47.65242" lon="6.18605">
        <ele>264.8</ele>
        <time>2021-05-16T08:45:16Z</time>
      </trkpt>
      <trkpt lat="47.65245" lon="6.1861">
        <ele>264.8</ele>
        <time>2021-05-16T08:45:19Z</time>
      </trkpt>
      <trkpt lat="47.65248" lon="6.18616">
        <ele>264.9</ele>
        <time>2021-05-16T08:45:22Z</time>
      </trkpt>
      <trkpt lat="47.65252" lon="6.18623">
        <ele>265.1</ele>
        <time>2021-05-16T08:45:25Z</time>
      </trkpt>
      <trkpt lat="47.65257" lon="6.18626">
        <ele>265.3</ele>
        <time>2021-05-16T08:45:28Z</time>
      </trkpt>
      <trkpt lat="47.65261" lon="6.18633">
        <ele>265.6</ele>
        <time>2021-05-16T08:45:31Z</time>
      </trkpt>
      <trkpt lat="47.65266" lon="6.18638">
        <ele>265.8</ele>
        <time>2021-05-16T08:45:34Z</time>
      </trkpt>
      <trkpt lat="47.6527" lon="6.18643">
        <ele>266.1</ele>
        <time>2021-05-16T08:45:37Z</time>
      </trkpt>
      <trkpt lat="47.65273" lon="6.18648">
        <ele>266.3</ele>
        <time>2021-05-16T08:45:39Z</time>
      </trkpt>
      <trkpt lat="47.65277" lon="6.18653">
        <ele>266.5</ele>
        <time>2021-05-16T08:45:42Z</time>
      </trkpt>
      <trkpt lat="47.65281" lon="6.18659">
        <ele>266.8</ele>
        <time>2021-05-16T08:45:45Z</time>
      </trkpt>
      <trkpt lat="47.65285" lon="6.18664">
        <ele>267.1</ele>
        <time>2021-05-16T08:45:48Z</time>
      </trkpt>
      <trkpt lat="47.65289" lon="6.18671">
        <ele>267.4</ele>
        <time>2021-05-16T08:45:52Z</time>
      </trkpt>
      <trkpt lat="47.65292" lon="6.18677">
        <ele>267.7</ele>
        <time>2021-05-16T08:45:55Z</time>
      </trkpt>
      <trkpt lat="47.65296" lon="6.18683">
        <ele>268</ele>
        <time>2021-05-16T08:45:57Z</time>
      </trkpt>
      <trkpt lat="47.653" lon="6.18688">
        <ele>268.4</ele>
        <time>2021-05-16T08:46:01Z</time>
      </trkpt>
      <trkpt lat="47.65304" lon="6.18691">
        <ele>268.7</ele>
        <time>2021-05-16T08:46:04Z</time>
      </trkpt>
      <trkpt lat="47.65307" lon="6.18697">
        <ele>268.9</ele>
        <time>2021-05-16T08:46:39Z</time>
      </trkpt>
      <trkpt lat="47.6531" lon="6.18702">
        <ele>269.2</ele>
        <time>2021-05-16T08:46:43Z</time>
      </trkpt>
      <trkpt lat="47.65314" lon="6.18709">
        <ele>269.5</ele>
        <time>2021-05-16T08:46:45Z</time>
      </trkpt>
      <trkpt lat="47.65318" lon="6.18714">
        <ele>269.7</ele>
        <time>2021-05-16T08:46:47Z</time>
      </trkpt>
      <trkpt lat="47.65322" lon="6.18722">
        <ele>270.1</ele>
        <time>2021-05-16T08:46:51Z</time>
      </trkpt>
      <trkpt lat="47.65325" lon="6.18728">
        <ele>270.3</ele>
        <time>2021-05-16T08:46:53Z</time>
      </trkpt>
      <trkpt lat="47.65329" lon="6.18735">
        <ele>270.6</ele>
        <time>2021-05-16T08:46:57Z</time>
      </trkpt>
      <trkpt lat="47.65333" lon="6.18741">
        <ele>270.9</ele>
        <time>2021-05-16T08:46:59Z</time>
      </trkpt>
      <trkpt lat="47.65336" lon="6.18748">
        <ele>271.2</ele>
        <time>2021-05-16T08:47:02Z</time>
      </trkpt>
      <trkpt lat="47.6534" lon="6.18754">
        <ele>271.5</ele>
        <time>2021-05-16T08:47:06Z</time>
      </trkpt>
      <trkpt lat="47.65343" lon="6.1876">
        <ele>271.8</ele>
        <time>2021-05-16T08:47:08Z</time>
      </trkpt>
      <trkpt lat="47.65346" lon="6.18766">
        <ele>272.1</ele>
        <time>2021-05-16T08:47:11Z</time>
      </trkpt>
      <trkpt lat="47.6535" lon="6.18773">
        <ele>272.5</ele>
        <time>2021-05-16T08:47:15Z</time>
      </trkpt>
      <trkpt lat="47.65353" lon="6.18778">
        <ele>272.8</ele>
        <time>2021-05-16T08:47:17Z</time>
      </trkpt>
      <trkpt lat="47.65357" lon="6.18785">
        <ele>273.1</ele>
        <time>2021-05-16T08:47:21Z</time>
      </trkpt>
      <trkpt lat="47.6536" lon="6.1879">
        <ele>273.4</ele>
        <time>2021-05-16T08:47:23Z</time>
      </trkpt>
      <trkpt lat="47.65364" lon="6.18797">
        <ele>273.8</ele>
        <time>2021-05-16T08:47:26Z</time>
      </trkpt>
      <trkpt lat="47.65368" lon="6.18803">
        <ele>274.1</ele>
        <time>2021-05-16T08:47:29Z</time>
      </trkpt>
      <trkpt lat="47.65372" lon="6.1881">
        <ele>274.5</ele>
        <time>2021-05-16T08:47:33Z</time>
      </trkpt>
      <trkpt lat="47.65375" lon="6.18815">
        <ele>274.8</ele>
        <time>2021-05-16T08:47:37Z</time>
      </trkpt>
      <trkpt lat="47.65377" lon="6.18821">
        <ele>275</ele>
        <time>2021-05-16T08:47:40Z</time>
      </trkpt>
      <trkpt lat="47.6538" lon="6.18826">
        <ele>275.3</ele>
        <time>2021-05-16T08:47:43Z</time>
      </trkpt>
      <trkpt lat="47.65383" lon="6.18832">
        <ele>275.6</ele>
        <time>2021-05-16T08:47:46Z</time>
      </trkpt>
      <trkpt lat="47.65387" lon="6.18838">
        <ele>275.9</ele>
        <time>2021-05-16T08:47:49Z</time>
      </trkpt>
      <trkpt lat="47.6539" lon="6.18844">
        <ele>276.3</ele>
        <time>2021-05-16T08:47:51Z</time>
      </trkpt>
      <trkpt lat="47.65393" lon="6.18851">
        <ele>276.7</ele>
        <time>2021-05-16T08:47:55Z</time>
      </trkpt>
      <trkpt lat="47.65397" lon="6.18856">
        <ele>277.1</ele>
        <time>2021-05-16T08:47:59Z</time>
      </trkpt>
      <trkpt lat="47.654" lon="6.18862">
        <ele>277.5</ele>
        <time>2021-05-16T08:48:01Z</time>
      </trkpt>
      <trkpt lat="47.65403" lon="6.18868">
        <ele>277.9</ele>
        <time>2021-05-16T08:48:05Z</time>
      </trkpt>
      <trkpt lat="47.65407" lon="6.18875">
        <ele>278.3</ele>
        <time>2021-05-16T08:48:08Z</time>
      </trkpt>
      <trkpt lat="47.6541" lon="6.18881">
        <ele>278.6</ele>
        <time>2021-05-16T08:48:10Z</time>
      </trkpt>
      <trkpt lat="47.65413" lon="6.18887">
        <ele>279</ele>
        <time>2021-05-16T08:48:13Z</time>
      </trkpt>
      <trkpt lat="47.65417" lon="6.18893">
        <ele>279.4</ele>
        <time>2021-05-16T08:48:16Z</time>
      </trkpt>
      <trkpt lat="47.65421" lon="6.189">
        <ele>279.8</ele>
        <time>2021-05-16T08:48:19Z</time>
      </trkpt>
      <trkpt lat="47.65425" lon="6.18906">
        <ele>280.2</ele>
        <time>2021-05-16T08:48:23Z</time>
      </trkpt>
      <trkpt lat="47.65428" lon="6.18912">
        <ele>280.6</ele>
        <time>2021-05-16T08:48:25Z</time>
      </trkpt>
      <trkpt lat="47.65431" lon="6.18917">
        <ele>280.9</ele>
        <time>2021-05-16T08:48:28Z</time>
      </trkpt>
      <trkpt lat="47.65435" lon="6.18924">
        <ele>281.2</ele>
        <time>2021-05-16T08:48:32Z</time>
      </trkpt>
      <trkpt lat="47.65438" lon="6.1893">
        <ele>281.5</ele>
        <time>2021-05-16T08:48:34Z</time>
      </trkpt>
      <trkpt lat="47.65442" lon="6.18936">
        <ele>281.7</ele>
        <time>2021-05-16T08:48:37Z</time>
      </trkpt>
      <trkpt lat="47.65446" lon="6.18943">
        <ele>282.1</ele>
        <time>2021-05-16T08:48:41Z</time>
      </trkpt>
      <trkpt lat="47.65449" lon="6.18948">
        <ele>282.3</ele>
        <time>2021-05-16T08:48:43Z</time>
      </trkpt>
      <trkpt lat="47.65453" lon="6.18954">
        <ele>282.7</ele>
        <time>2021-05-16T08:48:46Z</time>
      </trkpt>
      <trkpt lat="47.65457" lon="6.1896">
        <ele>282.9</ele>
        <time>2021-05-16T08:48:49Z</time>
      </trkpt>
      <trkpt lat="47.6546" lon="6.18966">
        <ele>283.2</ele>
        <time>2021-05-16T08:48:51Z</time>
      </trkpt>
      <trkpt lat="47.65462" lon="6.18973">
        <ele>283.4</ele>
        <time>2021-05-16T08:48:55Z</time>
      </trkpt>
      <trkpt lat="47.65466" lon="6.18979">
        <ele>283.7</ele>
        <time>2021-05-16T08:48:58Z</time>
      </trkpt>
      <trkpt lat="47.65469" lon="6.18985">
        <ele>283.9</ele>
        <time>2021-05-16T08:49:00Z</time>
      </trkpt>
      <trkpt lat="47.65471" lon="6.1899">
        <ele>284.2</ele>
        <time>2021-05-16T08:49:03Z</time>
      </trkpt>
      <trkpt lat="47.65476" lon="6.18997">
        <ele>284.5</ele>
        <time>2021-05-16T08:49:07Z</time>
      </trkpt>
      <trkpt lat="47.65478" lon="6.19002">
        <ele>284.7</ele>
        <time>2021-05-16T08:49:09Z</time>
      </trkpt>
      <trkpt lat="47.65481" lon="6.19008">
        <ele>285</ele>
        <time>2021-05-16T08:49:12Z</time>
      </trkpt>
      <trkpt lat="47.65485" lon="6.19014">
        <ele>285.2</ele>
        <time>2021-05-16T08:49:15Z</time>
      </trkpt>
      <trkpt lat="47.65487" lon="6.19021">
        <ele>285.5</ele>
        <time>2021-05-16T08:49:18Z</time>
      </trkpt>
      <trkpt lat="47.6549" lon="6.19027">
        <ele>285.7</ele>
        <time>2021-05-16T08:49:20Z</time>
      </trkpt>
      <trkpt lat="47.65491" lon="6.19034">
        <ele>285.9</ele>
        <time>2021-05-16T08:49:24Z</time>
      </trkpt>
      <trkpt lat="47.65492" lon="6.19041">
        <ele>286</ele>
        <time>2021-05-16T08:49:26Z</time>
      </trkpt>
      <trkpt lat="47.65492" lon="6.19049">
        <ele>286.1</ele>
        <time>2021-05-16T08:49:31Z</time>
      </trkpt>
      <trkpt lat="47.6549" lon="6.19056">
        <ele>286.1</ele>
        <time>2021-05-16T08:49:34Z</time>
      </trkpt>
      <trkpt lat="47.65488" lon="6.19063">
        <ele>286</ele>
        <time>2021-05-16T08:49:38Z</time>
      </trkpt>
      <trkpt lat="47.65487" lon="6.19071">
        <ele>286</ele>
        <time>2021-05-16T08:49:42Z</time>
      </trkpt>
      <trkpt lat="47.65486" lon="6.19078">
        <ele>286.1</ele>
        <time>2021-05-16T08:49:44Z</time>
      </trkpt>
      <trkpt lat="47.65486" lon="6.19086">
        <ele>286.2</ele>
        <time>2021-05-16T08:49:48Z</time>
      </trkpt>
      <trkpt lat="47.65485" lon="6.19094">
        <ele>286.2</ele>
        <time>2021-05-16T08:49:50Z</time>
      </trkpt>
      <trkpt lat="47.65484" lon="6.19102">
        <ele>286.2</ele>
        <time>2021-05-16T08:49:53Z</time>
      </trkpt>
      <trkpt lat="47.65484" lon="6.1911">
        <ele>286.2</ele>
        <time>2021-05-16T08:49:56Z</time>
      </trkpt>
      <trkpt lat="47.65486" lon="6.19118">
        <ele>286.3</ele>
        <time>2021-05-16T08:50:00Z</time>
      </trkpt>
      <trkpt lat="47.65488" lon="6.19125">
        <ele>286.4</ele>
        <time>2021-05-16T08:50:02Z</time>
      </trkpt>
      <trkpt lat="47.65491" lon="6.19132">
        <ele>286.6</ele>
        <time>2021-05-16T08:50:05Z</time>
      </trkpt>
      <trkpt lat="47.65494" lon="6.19139">
        <ele>286.7</ele>
        <time>2021-05-16T08:50:08Z</time>
      </trkpt>
      <trkpt lat="47.65495" lon="6.19145">
        <ele>286.8</ele>
        <time>2021-05-16T08:50:11Z</time>
      </trkpt>
      <trkpt lat="47.65498" lon="6.19154">
        <ele>286.9</ele>
        <time>2021-05-16T08:50:14Z</time>
      </trkpt>
      <trkpt lat="47.655" lon="6.19161">
        <ele>287</ele>
        <time>2021-05-16T08:50:17Z</time>
      </trkpt>
      <trkpt lat="47.65502" lon="6.19168">
        <ele>287.1</ele>
        <time>2021-05-16T08:50:19Z</time>
      </trkpt>
      <trkpt lat="47.65504" lon="6.19175">
        <ele>287.1</ele>
        <time>2021-05-16T08:50:22Z</time>
      </trkpt>
      <trkpt lat="47.65507" lon="6.19182">
        <ele>287.1</ele>
        <time>2021-05-16T08:50:24Z</time>
      </trkpt>
      <trkpt lat="47.65508" lon="6.1919">
        <ele>287.1</ele>
        <time>2021-05-16T08:50:29Z</time>
      </trkpt>
      <trkpt lat="47.6551" lon="6.19196">
        <ele>287</ele>
        <time>2021-05-16T08:50:31Z</time>
      </trkpt>
      <trkpt lat="47.65513" lon="6.19204">
        <ele>287</ele>
        <time>2021-05-16T08:50:35Z</time>
      </trkpt>
      <trkpt lat="47.65514" lon="6.19211">
        <ele>287</ele>
        <time>2021-05-16T08:50:38Z</time>
      </trkpt>
      <trkpt lat="47.65516" lon="6.19218">
        <ele>286.9</ele>
        <time>2021-05-16T08:50:42Z</time>
      </trkpt>
      <trkpt lat="47.65518" lon="6.19224">
        <ele>286.9</ele>
        <time>2021-05-16T08:50:44Z</time>
      </trkpt>
      <trkpt lat="47.65522" lon="6.19232">
        <ele>286.8</ele>
        <time>2021-05-16T08:50:48Z</time>
      </trkpt>
      <trkpt lat="47.65524" lon="6.19238">
        <ele>286.8</ele>
        <time>2021-05-16T08:50:51Z</time>
      </trkpt>
      <trkpt lat="47.65528" lon="6.19246">
        <ele>286.8</ele>
        <time>2021-05-16T08:50:56Z</time>
      </trkpt>
      <trkpt lat="47.65532" lon="6.19252">
        <ele>286.7</ele>
        <time>2021-05-16T08:50:59Z</time>
      </trkpt>
      <trkpt lat="47.65536" lon="6.19258">
        <ele>286.8</ele>
        <time>2021-05-16T08:51:01Z</time>
      </trkpt>
      <trkpt lat="47.65539" lon="6.19265">
        <ele>286.7</ele>
        <time>2021-05-16T08:51:05Z</time>
      </trkpt>
      <trkpt lat="47.65542" lon="6.19272">
        <ele>286.6</ele>
        <time>2021-05-16T08:51:08Z</time>
      </trkpt>
      <trkpt lat="47.65544" lon="6.19279">
        <ele>286.5</ele>
        <time>2021-05-16T08:51:11Z</time>
      </trkpt>
      <trkpt lat="47.65545" lon="6.19288">
        <ele>286.3</ele>
        <time>2021-05-16T08:51:14Z</time>
      </trkpt>
      <trkpt lat="47.65547" lon="6.19298">
        <ele>286.1</ele>
        <time>2021-05-16T08:51:17Z</time>
      </trkpt>
      <trkpt lat="47.65549" lon="6.19306">
        <ele>285.9</ele>
        <time>2021-05-16T08:51:18Z</time>
      </trkpt>
      <trkpt lat="47.6555" lon="6.19313">
        <ele>285.7</ele>
        <time>2021-05-16T08:51:20Z</time>
      </trkpt>
      <trkpt lat="47.65552" lon="6.1932">
        <ele>285.5</ele>
        <time>2021-05-16T08:51:22Z</time>
      </trkpt>
      <trkpt lat="47.65553" lon="6.19331">
        <ele>285.1</ele>
        <time>2021-05-16T08:51:23Z</time>
      </trkpt>
      <trkpt lat="47.65555" lon="6.19341">
        <ele>285.1</ele>
        <time>2021-05-16T08:51:25Z</time>
      </trkpt>
      <trkpt lat="47.65556" lon="6.19351">
        <ele>285.1</ele>
        <time>2021-05-16T08:51:28Z</time>
      </trkpt>
      <trkpt lat="47.65558" lon="6.19361">
        <ele>285.2</ele>
        <time>2021-05-16T08:51:29Z</time>
      </trkpt>
      <trkpt lat="47.65559" lon="6.19369">
        <ele>285.2</ele>
        <time>2021-05-16T08:51:31Z</time>
      </trkpt>
      <trkpt lat="47.65561" lon="6.19378">
        <ele>285.3</ele>
        <time>2021-05-16T08:51:34Z</time>
      </trkpt>
      <trkpt lat="47.65561" lon="6.19386">
        <ele>285.4</ele>
        <time>2021-05-16T08:51:36Z</time>
      </trkpt>
      <trkpt lat="47.65557" lon="6.19391">
        <ele>285.5</ele>
        <time>2021-05-16T08:51:40Z</time>
      </trkpt>
      <trkpt lat="47.65553" lon="6.19391">
        <ele>285.5</ele>
        <time>2021-05-16T08:51:43Z</time>
      </trkpt>
      <trkpt lat="47.65548" lon="6.19392">
        <ele>285.5</ele>
        <time>2021-05-16T08:51:47Z</time>
      </trkpt>
      <trkpt lat="47.65543" lon="6.19392">
        <ele>285.5</ele>
        <time>2021-05-16T08:51:51Z</time>
      </trkpt>
      <trkpt lat="47.65539" lon="6.19397">
        <ele>285.5</ele>
        <time>2021-05-16T08:51:55Z</time>
      </trkpt>
      <trkpt lat="47.65534" lon="6.19399">
        <ele>285.5</ele>
        <time>2021-05-16T08:51:58Z</time>
      </trkpt>
      <trkpt lat="47.65529" lon="6.19401">
        <ele>285.5</ele>
        <time>2021-05-16T08:52:01Z</time>
      </trkpt>
      <trkpt lat="47.65525" lon="6.19403">
        <ele>285.4</ele>
        <time>2021-05-16T08:52:02Z</time>
      </trkpt>
      <trkpt lat="47.6552" lon="6.19404">
        <ele>285.4</ele>
        <time>2021-05-16T08:52:04Z</time>
      </trkpt>
      <trkpt lat="47.65515" lon="6.19407">
        <ele>285.3</ele>
        <time>2021-05-16T08:52:07Z</time>
      </trkpt>
      <trkpt lat="47.65511" lon="6.1941">
        <ele>285.2</ele>
        <time>2021-05-16T08:52:12Z</time>
      </trkpt>
      <trkpt lat="47.65507" lon="6.19414">
        <ele>285.1</ele>
        <time>2021-05-16T08:52:17Z</time>
      </trkpt>
      <trkpt lat="47.65502" lon="6.19418">
        <ele>285.1</ele>
        <time>2021-05-16T08:52:24Z</time>
      </trkpt>
      <trkpt lat="47.65499" lon="6.19424">
        <ele>285.2</ele>
        <time>2021-05-16T08:52:27Z</time>
      </trkpt>
      <trkpt lat="47.65495" lon="6.19427">
        <ele>285.1</ele>
        <time>2021-05-16T08:52:47Z</time>
      </trkpt>
      <trkpt lat="47.65491" lon="6.19433">
        <ele>285.1</ele>
        <time>2021-05-16T08:52:55Z</time>
      </trkpt>
      <trkpt lat="47.65488" lon="6.19437">
        <ele>285</ele>
        <time>2021-05-16T08:53:07Z</time>
      </trkpt>
      <trkpt lat="47.6549" lon="6.19431">
        <ele>285</ele>
        <time>2021-05-16T08:53:22Z</time>
      </trkpt>
      <trkpt lat="47.65494" lon="6.19427">
        <ele>285.1</ele>
        <time>2021-05-16T08:53:26Z</time>
      </trkpt>
      <trkpt lat="47.65499" lon="6.19424">
        <ele>285.2</ele>
        <time>2021-05-16T08:53:30Z</time>
      </trkpt>
      <trkpt lat="47.65504" lon="6.1942">
        <ele>285.1</ele>
        <time>2021-05-16T08:53:49Z</time>
      </trkpt>
      <trkpt lat="47.65508" lon="6.19416">
        <ele>285.1</ele>
        <time>2021-05-16T08:53:59Z</time>
      </trkpt>
      <trkpt lat="47.65509" lon="6.19423">
        <ele>285.3</ele>
        <time>2021-05-16T08:56:05Z</time>
      </trkpt>
      <trkpt lat="47.65511" lon="6.19417">
        <ele>285.1</ele>
        <time>2021-05-16T08:57:15Z</time>
      </trkpt>
      <trkpt lat="47.65515" lon="6.19413">
        <ele>285.2</ele>
        <time>2021-05-16T08:58:25Z</time>
      </trkpt>
      <trkpt lat="47.6551" lon="6.19411">
        <ele>285.2</ele>
        <time>2021-05-16T09:02:36Z</time>
      </trkpt>
      <trkpt lat="47.65514" lon="6.19408">
        <ele>285.3</ele>
        <time>2021-05-16T09:12:15Z</time>
      </trkpt>
      <trkpt lat="47.65518" lon="6.19404">
        <ele>285.4</ele>
        <time>2021-05-16T09:12:22Z</time>
      </trkpt>
      <trkpt lat="47.65522" lon="6.19404">
        <ele>285.4</ele>
        <time>2021-05-16T09:12:51Z</time>
      </trkpt>
      <trkpt lat="47.65526" lon="6.19409">
        <ele>285.4</ele>
        <time>2021-05-16T09:13:21Z</time>
      </trkpt>
      <trkpt lat="47.6553" lon="6.19412">
        <ele>285.4</ele>
        <time>2021-05-16T09:13:47Z</time>
      </trkpt>
      <trkpt lat="47.65528" lon="6.19419">
        <ele>285.4</ele>
        <time>2021-05-16T09:14:23Z</time>
      </trkpt>
      <trkpt lat="47.65528" lon="6.19427">
        <ele>285.6</ele>
        <time>2021-05-16T09:14:32Z</time>
      </trkpt>
      <trkpt lat="47.65528" lon="6.19434">
        <ele>285.8</ele>
        <time>2021-05-16T09:14:34Z</time>
      </trkpt>
      <trkpt lat="47.65527" lon="6.19442">
        <ele>286</ele>
        <time>2021-05-16T09:14:48Z</time>
      </trkpt>
      <trkpt lat="47.65526" lon="6.19448">
        <ele>286.2</ele>
        <time>2021-05-16T09:16:25Z</time>
      </trkpt>
      <trkpt lat="47.65526" lon="6.19455">
        <ele>286.4</ele>
        <time>2021-05-16T09:16:40Z</time>
      </trkpt>
      <trkpt lat="47.65528" lon="6.19462">
        <ele>286.6</ele>
        <time>2021-05-16T09:16:48Z</time>
      </trkpt>
      <trkpt lat="47.65529" lon="6.19469">
        <ele>286.8</ele>
        <time>2021-05-16T09:16:53Z</time>
      </trkpt>
      <trkpt lat="47.65528" lon="6.19476">
        <ele>287</ele>
        <time>2021-05-16T09:17:05Z</time>
      </trkpt>
      <trkpt lat="47.6553" lon="6.19482">
        <ele>287.2</ele>
        <time>2021-05-16T09:17:20Z</time>
      </trkpt>
      <trkpt lat="47.65532" lon="6.19488">
        <ele>287.4</ele>
        <time>2021-05-16T09:17:36Z</time>
      </trkpt>
      <trkpt lat="47.65534" lon="6.19495">
        <ele>287.7</ele>
        <time>2021-05-16T09:18:03Z</time>
      </trkpt>
      <trkpt lat="47.65531" lon="6.19501">
        <ele>287.8</ele>
        <time>2021-05-16T09:18:10Z</time>
      </trkpt>
      <trkpt lat="47.65527" lon="6.19506">
        <ele>287.8</ele>
        <time>2021-05-16T09:18:14Z</time>
      </trkpt>
      <trkpt lat="47.65523" lon="6.1951">
        <ele>287.7</ele>
        <time>2021-05-16T09:18:18Z</time>
      </trkpt>
      <trkpt lat="47.65521" lon="6.19517">
        <ele>287.8</ele>
        <time>2021-05-16T09:18:25Z</time>
      </trkpt>
      <trkpt lat="47.65521" lon="6.19524">
        <ele>287.9</ele>
        <time>2021-05-16T09:18:48Z</time>
      </trkpt>
      <trkpt lat="47.65518" lon="6.19531">
        <ele>287.9</ele>
        <time>2021-05-16T09:19:02Z</time>
      </trkpt>
      <trkpt lat="47.65515" lon="6.19536">
        <ele>287.9</ele>
        <time>2021-05-16T09:19:07Z</time>
      </trkpt>
      <trkpt lat="47.65512" lon="6.19542">
        <ele>287.9</ele>
        <time>2021-05-16T09:19:25Z</time>
      </trkpt>
      <trkpt lat="47.65507" lon="6.19546">
        <ele>287.8</ele>
        <time>2021-05-16T09:19:43Z</time>
      </trkpt>
      <trkpt lat="47.65502" lon="6.19548">
        <ele>287.7</ele>
        <time>2021-05-16T09:19:56Z</time>
      </trkpt>
      <trkpt lat="47.65497" lon="6.19548">
        <ele>287.4</ele>
        <time>2021-05-16T09:20:10Z</time>
      </trkpt>
      <trkpt lat="47.65492" lon="6.1955">
        <ele>286.9</ele>
        <time>2021-05-16T09:20:12Z</time>
      </trkpt>
      <trkpt lat="47.65488" lon="6.19553">
        <ele>286.6</ele>
        <time>2021-05-16T09:20:15Z</time>
      </trkpt>
      <trkpt lat="47.65484" lon="6.19558">
        <ele>286.3</ele>
        <time>2021-05-16T09:20:17Z</time>
      </trkpt>
      <trkpt lat="47.6548" lon="6.19565">
        <ele>286.1</ele>
        <time>2021-05-16T09:20:20Z</time>
      </trkpt>
      <trkpt lat="47.65478" lon="6.19571">
        <ele>286</ele>
        <time>2021-05-16T09:20:23Z</time>
      </trkpt>
      <trkpt lat="47.65475" lon="6.19577">
        <ele>285.9</ele>
        <time>2021-05-16T09:20:28Z</time>
      </trkpt>
      <trkpt lat="47.65474" lon="6.19586">
        <ele>285.8</ele>
        <time>2021-05-16T09:20:33Z</time>
      </trkpt>
      <trkpt lat="47.65472" lon="6.19593">
        <ele>285.4</ele>
        <time>2021-05-16T09:20:53Z</time>
      </trkpt>
      <trkpt lat="47.65471" lon="6.196">
        <ele>285.2</ele>
        <time>2021-05-16T09:20:57Z</time>
      </trkpt>
      <trkpt lat="47.65469" lon="6.19608">
        <ele>284.8</ele>
        <time>2021-05-16T09:21:02Z</time>
      </trkpt>
      <trkpt lat="47.65466" lon="6.19615">
        <ele>284.4</ele>
        <time>2021-05-16T09:21:05Z</time>
      </trkpt>
      <trkpt lat="47.65462" lon="6.19621">
        <ele>283.9</ele>
        <time>2021-05-16T09:21:09Z</time>
      </trkpt>
      <trkpt lat="47.6546" lon="6.19627">
        <ele>283.5</ele>
        <time>2021-05-16T09:21:11Z</time>
      </trkpt>
      <trkpt lat="47.65457" lon="6.19634">
        <ele>283.2</ele>
        <time>2021-05-16T09:21:14Z</time>
      </trkpt>
      <trkpt lat="47.65452" lon="6.19639">
        <ele>282.6</ele>
        <time>2021-05-16T09:21:18Z</time>
      </trkpt>
      <trkpt lat="47.65448" lon="6.19646">
        <ele>282.1</ele>
        <time>2021-05-16T09:21:22Z</time>
      </trkpt>
      <trkpt lat="47.65445" lon="6.19651">
        <ele>281.7</ele>
        <time>2021-05-16T09:21:24Z</time>
      </trkpt>
      <trkpt lat="47.6544" lon="6.19654">
        <ele>281.2</ele>
        <time>2021-05-16T09:21:28Z</time>
      </trkpt>
      <trkpt lat="47.65435" lon="6.19654">
        <ele>280.8</ele>
        <time>2021-05-16T09:21:32Z</time>
      </trkpt>
      <trkpt lat="47.6543" lon="6.1965">
        <ele>280.5</ele>
        <time>2021-05-16T09:21:36Z</time>
      </trkpt>
      <trkpt lat="47.65426" lon="6.19646">
        <ele>280.2</ele>
        <time>2021-05-16T09:21:39Z</time>
      </trkpt>
      <trkpt lat="47.65421" lon="6.19644">
        <ele>279.9</ele>
        <time>2021-05-16T09:21:42Z</time>
      </trkpt>
      <trkpt lat="47.65416" lon="6.19642">
        <ele>279.5</ele>
        <time>2021-05-16T09:21:44Z</time>
      </trkpt>
      <trkpt lat="47.65411" lon="6.19641">
        <ele>279</ele>
        <time>2021-05-16T09:21:47Z</time>
      </trkpt>
      <trkpt lat="47.65406" lon="6.19637">
        <ele>278.6</ele>
        <time>2021-05-16T09:21:50Z</time>
      </trkpt>
      <trkpt lat="47.65399" lon="6.19632">
        <ele>278</ele>
        <time>2021-05-16T09:21:54Z</time>
      </trkpt>
      <trkpt lat="47.65395" lon="6.1963">
        <ele>277.6</ele>
        <time>2021-05-16T09:21:56Z</time>
      </trkpt>
      <trkpt lat="47.65389" lon="6.19627">
        <ele>277.1</ele>
        <time>2021-05-16T09:21:59Z</time>
      </trkpt>
      <trkpt lat="47.65384" lon="6.19625">
        <ele>276.7</ele>
        <time>2021-05-16T09:22:02Z</time>
      </trkpt>
      <trkpt lat="47.65378" lon="6.19624">
        <ele>276.1</ele>
        <time>2021-05-16T09:22:04Z</time>
      </trkpt>
      <trkpt lat="47.65373" lon="6.19624">
        <ele>275.6</ele>
        <time>2021-05-16T09:22:06Z</time>
      </trkpt>
      <trkpt lat="47.65368" lon="6.19625">
        <ele>275</ele>
        <time>2021-05-16T09:22:09Z</time>
      </trkpt>
      <trkpt lat="47.65361" lon="6.19626">
        <ele>274.4</ele>
        <time>2021-05-16T09:22:12Z</time>
      </trkpt>
      <trkpt lat="47.65356" lon="6.19626">
        <ele>273.8</ele>
        <time>2021-05-16T09:22:14Z</time>
      </trkpt>
      <trkpt lat="47.65352" lon="6.19626">
        <ele>273.4</ele>
        <time>2021-05-16T09:22:16Z</time>
      </trkpt>
      <trkpt lat="47.65345" lon="6.19625">
        <ele>272.7</ele>
        <time>2021-05-16T09:22:19Z</time>
      </trkpt>
      <trkpt lat="47.65339" lon="6.19624">
        <ele>272.1</ele>
        <time>2021-05-16T09:22:22Z</time>
      </trkpt>
      <trkpt lat="47.65334" lon="6.19623">
        <ele>271.6</ele>
        <time>2021-05-16T09:22:24Z</time>
      </trkpt>
      <trkpt lat="47.65328" lon="6.19621">
        <ele>271.4</ele>
        <time>2021-05-16T09:22:26Z</time>
      </trkpt>
      <trkpt lat="47.65324" lon="6.19615">
        <ele>271.4</ele>
        <time>2021-05-16T09:22:28Z</time>
      </trkpt>
      <trkpt lat="47.65321" lon="6.1961">
        <ele>271.4</ele>
        <time>2021-05-16T09:22:30Z</time>
      </trkpt>
      <trkpt lat="47.65318" lon="6.19606">
        <ele>271.3</ele>
        <time>2021-05-16T09:22:32Z</time>
      </trkpt>
      <trkpt lat="47.65316" lon="6.19599">
        <ele>271.5</ele>
        <time>2021-05-16T09:22:37Z</time>
      </trkpt>
      <trkpt lat="47.65314" lon="6.19591">
        <ele>271.6</ele>
        <time>2021-05-16T09:22:40Z</time>
      </trkpt>
      <trkpt lat="47.65311" lon="6.19584">
        <ele>271.6</ele>
        <time>2021-05-16T09:22:43Z</time>
      </trkpt>
      <trkpt lat="47.65308" lon="6.19578">
        <ele>271.5</ele>
        <time>2021-05-16T09:22:45Z</time>
      </trkpt>
      <trkpt lat="47.65306" lon="6.19572">
        <ele>271.4</ele>
        <time>2021-05-16T09:22:48Z</time>
      </trkpt>
      <trkpt lat="47.65303" lon="6.19566">
        <ele>271.2</ele>
        <time>2021-05-16T09:22:51Z</time>
      </trkpt>
      <trkpt lat="47.65299" lon="6.19562">
        <ele>271.1</ele>
        <time>2021-05-16T09:22:55Z</time>
      </trkpt>
      <trkpt lat="47.65296" lon="6.19553">
        <ele>270.9</ele>
        <time>2021-05-16T09:22:59Z</time>
      </trkpt>
      <trkpt lat="47.65293" lon="6.19549">
        <ele>270.8</ele>
        <time>2021-05-16T09:23:03Z</time>
      </trkpt>
      <trkpt lat="47.6529" lon="6.19543">
        <ele>270.6</ele>
        <time>2021-05-16T09:23:08Z</time>
      </trkpt>
      <trkpt lat="47.65287" lon="6.19536">
        <ele>270.5</ele>
        <time>2021-05-16T09:23:13Z</time>
      </trkpt>
      <trkpt lat="47.65285" lon="6.1953">
        <ele>270.5</ele>
        <time>2021-05-16T09:23:17Z</time>
      </trkpt>
      <trkpt lat="47.65285" lon="6.19522">
        <ele>270.5</ele>
        <time>2021-05-16T09:23:21Z</time>
      </trkpt>
      <trkpt lat="47.65284" lon="6.19514">
        <ele>270.5</ele>
        <time>2021-05-16T09:23:25Z</time>
      </trkpt>
      <trkpt lat="47.65283" lon="6.19507">
        <ele>270.5</ele>
        <time>2021-05-16T09:23:28Z</time>
      </trkpt>
      <trkpt lat="47.6528" lon="6.19501">
        <ele>270.4</ele>
        <time>2021-05-16T09:23:31Z</time>
      </trkpt>
      <trkpt lat="47.65278" lon="6.19495">
        <ele>270.3</ele>
        <time>2021-05-16T09:23:34Z</time>
      </trkpt>
      <trkpt lat="47.65276" lon="6.19489">
        <ele>270.2</ele>
        <time>2021-05-16T09:23:37Z</time>
      </trkpt>
      <trkpt lat="47.65273" lon="6.1948">
        <ele>270</ele>
        <time>2021-05-16T09:23:39Z</time>
      </trkpt>
      <trkpt lat="47.6527" lon="6.19472">
        <ele>269.8</ele>
        <time>2021-05-16T09:23:43Z</time>
      </trkpt>
      <trkpt lat="47.65266" lon="6.19466">
        <ele>269.5</ele>
        <time>2021-05-16T09:23:46Z</time>
      </trkpt>
      <trkpt lat="47.65262" lon="6.19459">
        <ele>269.2</ele>
        <time>2021-05-16T09:23:48Z</time>
      </trkpt>
      <trkpt lat="47.65258" lon="6.19454">
        <ele>268.9</ele>
        <time>2021-05-16T09:23:51Z</time>
      </trkpt>
      <trkpt lat="47.65254" lon="6.19448">
        <ele>268.7</ele>
        <time>2021-05-16T09:23:53Z</time>
      </trkpt>
      <trkpt lat="47.65251" lon="6.19443">
        <ele>268.4</ele>
        <time>2021-05-16T09:23:55Z</time>
      </trkpt>
      <trkpt lat="47.65245" lon="6.19437">
        <ele>268.1</ele>
        <time>2021-05-16T09:23:57Z</time>
      </trkpt>
      <trkpt lat="47.65242" lon="6.19431">
        <ele>267.9</ele>
        <time>2021-05-16T09:24:00Z</time>
      </trkpt>
      <trkpt lat="47.65238" lon="6.19427">
        <ele>267.8</ele>
        <time>2021-05-16T09:24:02Z</time>
      </trkpt>
      <trkpt lat="47.65233" lon="6.19422">
        <ele>267.6</ele>
        <time>2021-05-16T09:24:04Z</time>
      </trkpt>
      <trkpt lat="47.6523" lon="6.19416">
        <ele>267.5</ele>
        <time>2021-05-16T09:24:07Z</time>
      </trkpt>
      <trkpt lat="47.65226" lon="6.19409">
        <ele>267.7</ele>
        <time>2021-05-16T09:24:09Z</time>
      </trkpt>
      <trkpt lat="47.65223" lon="6.19401">
        <ele>267.8</ele>
        <time>2021-05-16T09:24:12Z</time>
      </trkpt>
      <trkpt lat="47.6522" lon="6.19395">
        <ele>267.9</ele>
        <time>2021-05-16T09:24:13Z</time>
      </trkpt>
      <trkpt lat="47.65216" lon="6.19391">
        <ele>268</ele>
        <time>2021-05-16T09:24:15Z</time>
      </trkpt>
      <trkpt lat="47.65211" lon="6.19385">
        <ele>268</ele>
        <time>2021-05-16T09:24:18Z</time>
      </trkpt>
      <trkpt lat="47.65208" lon="6.1938">
        <ele>268.1</ele>
        <time>2021-05-16T09:24:22Z</time>
      </trkpt>
      <trkpt lat="47.65204" lon="6.19373">
        <ele>268.2</ele>
        <time>2021-05-16T09:24:24Z</time>
      </trkpt>
      <trkpt lat="47.65201" lon="6.19367">
        <ele>268.3</ele>
        <time>2021-05-16T09:24:27Z</time>
      </trkpt>
      <trkpt lat="47.65197" lon="6.1936">
        <ele>268.3</ele>
        <time>2021-05-16T09:24:30Z</time>
      </trkpt>
      <trkpt lat="47.65194" lon="6.19354">
        <ele>268.4</ele>
        <time>2021-05-16T09:24:32Z</time>
      </trkpt>
      <trkpt lat="47.65192" lon="6.19347">
        <ele>268.5</ele>
        <time>2021-05-16T09:24:36Z</time>
      </trkpt>
      <trkpt lat="47.6519" lon="6.1934">
        <ele>268.7</ele>
        <time>2021-05-16T09:24:39Z</time>
      </trkpt>
      <trkpt lat="47.65187" lon="6.19335">
        <ele>268.7</ele>
        <time>2021-05-16T09:24:42Z</time>
      </trkpt>
      <trkpt lat="47.65182" lon="6.19332">
        <ele>268.6</ele>
        <time>2021-05-16T09:24:46Z</time>
      </trkpt>
      <trkpt lat="47.65178" lon="6.19328">
        <ele>268.5</ele>
        <time>2021-05-16T09:25:12Z</time>
      </trkpt>
      <trkpt lat="47.65174" lon="6.19323">
        <ele>268.6</ele>
        <time>2021-05-16T09:25:15Z</time>
      </trkpt>
      <trkpt lat="47.65171" lon="6.19318">
        <ele>268.5</ele>
        <time>2021-05-16T09:25:16Z</time>
      </trkpt>
      <trkpt lat="47.65166" lon="6.19312">
        <ele>268.5</ele>
        <time>2021-05-16T09:25:20Z</time>
      </trkpt>
      <trkpt lat="47.65162" lon="6.19308">
        <ele>268.5</ele>
        <time>2021-05-16T09:25:22Z</time>
      </trkpt>
      <trkpt lat="47.65158" lon="6.19304">
        <ele>268.4</ele>
        <time>2021-05-16T09:25:24Z</time>
      </trkpt>
      <trkpt lat="47.65153" lon="6.19302">
        <ele>268.3</ele>
        <time>2021-05-16T09:25:27Z</time>
      </trkpt>
      <trkpt lat="47.65149" lon="6.193">
        <ele>268.2</ele>
        <time>2021-05-16T09:25:29Z</time>
      </trkpt>
      <trkpt lat="47.65145" lon="6.19296">
        <ele>268.1</ele>
        <time>2021-05-16T09:25:31Z</time>
      </trkpt>
      <trkpt lat="47.65141" lon="6.19292">
        <ele>268.1</ele>
        <time>2021-05-16T09:25:33Z</time>
      </trkpt>
      <trkpt lat="47.65137" lon="6.19288">
        <ele>268</ele>
        <time>2021-05-16T09:25:36Z</time>
      </trkpt>
      <trkpt lat="47.65133" lon="6.19284">
        <ele>268</ele>
        <time>2021-05-16T09:25:38Z</time>
      </trkpt>
      <trkpt lat="47.65128" lon="6.19278">
        <ele>267.9</ele>
        <time>2021-05-16T09:25:41Z</time>
      </trkpt>
      <trkpt lat="47.65123" lon="6.19273">
        <ele>267.9</ele>
        <time>2021-05-16T09:25:45Z</time>
      </trkpt>
      <trkpt lat="47.65119" lon="6.19267">
        <ele>267.9</ele>
        <time>2021-05-16T09:25:47Z</time>
      </trkpt>
      <trkpt lat="47.65115" lon="6.19262">
        <ele>267.8</ele>
        <time>2021-05-16T09:25:50Z</time>
      </trkpt>
      <trkpt lat="47.65109" lon="6.19257">
        <ele>267.8</ele>
        <time>2021-05-16T09:25:54Z</time>
      </trkpt>
      <trkpt lat="47.65104" lon="6.19251">
        <ele>267.7</ele>
        <time>2021-05-16T09:25:56Z</time>
      </trkpt>
      <trkpt lat="47.65101" lon="6.19245">
        <ele>267.7</ele>
        <time>2021-05-16T09:25:58Z</time>
      </trkpt>
      <trkpt lat="47.65096" lon="6.19238">
        <ele>267.5</ele>
        <time>2021-05-16T09:26:01Z</time>
      </trkpt>
      <trkpt lat="47.65092" lon="6.19233">
        <ele>267.3</ele>
        <time>2021-05-16T09:26:04Z</time>
      </trkpt>
      <trkpt lat="47.65088" lon="6.19228">
        <ele>267.2</ele>
        <time>2021-05-16T09:26:06Z</time>
      </trkpt>
      <trkpt lat="47.65084" lon="6.19223">
        <ele>267</ele>
        <time>2021-05-16T09:26:08Z</time>
      </trkpt>
      <trkpt lat="47.6508" lon="6.19215">
        <ele>266.8</ele>
        <time>2021-05-16T09:26:11Z</time>
      </trkpt>
      <trkpt lat="47.65076" lon="6.19206">
        <ele>266.6</ele>
        <time>2021-05-16T09:26:13Z</time>
      </trkpt>
      <trkpt lat="47.65073" lon="6.19202">
        <ele>266.5</ele>
        <time>2021-05-16T09:26:16Z</time>
      </trkpt>
      <trkpt lat="47.65068" lon="6.19196">
        <ele>266.2</ele>
        <time>2021-05-16T09:26:19Z</time>
      </trkpt>
      <trkpt lat="47.65064" lon="6.19188">
        <ele>266</ele>
        <time>2021-05-16T09:26:21Z</time>
      </trkpt>
      <trkpt lat="47.65061" lon="6.19183">
        <ele>265.9</ele>
        <time>2021-05-16T09:26:23Z</time>
      </trkpt>
      <trkpt lat="47.65058" lon="6.19177">
        <ele>265.7</ele>
        <time>2021-05-16T09:26:26Z</time>
      </trkpt>
      <trkpt lat="47.65053" lon="6.19172">
        <ele>265.5</ele>
        <time>2021-05-16T09:26:28Z</time>
      </trkpt>
      <trkpt lat="47.65049" lon="6.19166">
        <ele>265.4</ele>
        <time>2021-05-16T09:26:29Z</time>
      </trkpt>
      <trkpt lat="47.65045" lon="6.19158">
        <ele>265.3</ele>
        <time>2021-05-16T09:26:32Z</time>
      </trkpt>
      <trkpt lat="47.65042" lon="6.19151">
        <ele>265.2</ele>
        <time>2021-05-16T09:26:33Z</time>
      </trkpt>
      <trkpt lat="47.65039" lon="6.19146">
        <ele>265.1</ele>
        <time>2021-05-16T09:26:35Z</time>
      </trkpt>
      <trkpt lat="47.65034" lon="6.19138">
        <ele>265</ele>
        <time>2021-05-16T09:26:38Z</time>
      </trkpt>
      <trkpt lat="47.65029" lon="6.19132">
        <ele>264.8</ele>
        <time>2021-05-16T09:26:40Z</time>
      </trkpt>
      <trkpt lat="47.65025" lon="6.19125">
        <ele>264.7</ele>
        <time>2021-05-16T09:26:42Z</time>
      </trkpt>
      <trkpt lat="47.65022" lon="6.19119">
        <ele>264.6</ele>
        <time>2021-05-16T09:26:43Z</time>
      </trkpt>
      <trkpt lat="47.65019" lon="6.19113">
        <ele>264.6</ele>
        <time>2021-05-16T09:26:45Z</time>
      </trkpt>
      <trkpt lat="47.65015" lon="6.19108">
        <ele>264.4</ele>
        <time>2021-05-16T09:26:46Z</time>
      </trkpt>
      <trkpt lat="47.65012" lon="6.19101">
        <ele>264.4</ele>
        <time>2021-05-16T09:26:48Z</time>
      </trkpt>
      <trkpt lat="47.65008" lon="6.19093">
        <ele>264.3</ele>
        <time>2021-05-16T09:26:50Z</time>
      </trkpt>
      <trkpt lat="47.65003" lon="6.19088">
        <ele>264.1</ele>
        <time>2021-05-16T09:26:53Z</time>
      </trkpt>
      <trkpt lat="47.65" lon="6.19082">
        <ele>264</ele>
        <time>2021-05-16T09:26:54Z</time>
      </trkpt>
      <trkpt lat="47.64996" lon="6.19072">
        <ele>263.9</ele>
        <time>2021-05-16T09:26:57Z</time>
      </trkpt>
      <trkpt lat="47.64993" lon="6.19067">
        <ele>263.8</ele>
        <time>2021-05-16T09:26:58Z</time>
      </trkpt>
      <trkpt lat="47.64988" lon="6.19063">
        <ele>263.5</ele>
        <time>2021-05-16T09:27:00Z</time>
      </trkpt>
      <trkpt lat="47.64984" lon="6.19055">
        <ele>263.4</ele>
        <time>2021-05-16T09:27:03Z</time>
      </trkpt>
      <trkpt lat="47.64981" lon="6.19048">
        <ele>263.3</ele>
        <time>2021-05-16T09:27:06Z</time>
      </trkpt>
      <trkpt lat="47.64977" lon="6.1904">
        <ele>263.1</ele>
        <time>2021-05-16T09:27:08Z</time>
      </trkpt>
      <trkpt lat="47.64973" lon="6.19033">
        <ele>263</ele>
        <time>2021-05-16T09:27:10Z</time>
      </trkpt>
      <trkpt lat="47.64968" lon="6.19024">
        <ele>262.8</ele>
        <time>2021-05-16T09:27:11Z</time>
      </trkpt>
      <trkpt lat="47.64963" lon="6.19015">
        <ele>262.6</ele>
        <time>2021-05-16T09:27:14Z</time>
      </trkpt>
      <trkpt lat="47.6496" lon="6.19009">
        <ele>262.5</ele>
        <time>2021-05-16T09:27:15Z</time>
      </trkpt>
      <trkpt lat="47.64955" lon="6.18999">
        <ele>262.3</ele>
        <time>2021-05-16T09:27:17Z</time>
      </trkpt>
      <trkpt lat="47.6495" lon="6.18988">
        <ele>262.2</ele>
        <time>2021-05-16T09:27:18Z</time>
      </trkpt>
      <trkpt lat="47.64947" lon="6.18981">
        <ele>262.2</ele>
        <time>2021-05-16T09:27:19Z</time>
      </trkpt>
      <trkpt lat="47.64942" lon="6.18971">
        <ele>262.1</ele>
        <time>2021-05-16T09:27:21Z</time>
      </trkpt>
      <trkpt lat="47.64938" lon="6.18965">
        <ele>262</ele>
        <time>2021-05-16T09:27:22Z</time>
      </trkpt>
      <trkpt lat="47.64934" lon="6.18958">
        <ele>262</ele>
        <time>2021-05-16T09:27:24Z</time>
      </trkpt>
      <trkpt lat="47.6493" lon="6.1895">
        <ele>261.9</ele>
        <time>2021-05-16T09:27:25Z</time>
      </trkpt>
      <trkpt lat="47.64924" lon="6.18942">
        <ele>261.8</ele>
        <time>2021-05-16T09:27:27Z</time>
      </trkpt>
      <trkpt lat="47.64919" lon="6.18933">
        <ele>261.7</ele>
        <time>2021-05-16T09:27:27Z</time>
      </trkpt>
      <trkpt lat="47.64915" lon="6.18927">
        <ele>261.7</ele>
        <time>2021-05-16T09:27:28Z</time>
      </trkpt>
      <trkpt lat="47.64912" lon="6.18921">
        <ele>261.7</ele>
        <time>2021-05-16T09:27:29Z</time>
      </trkpt>
      <trkpt lat="47.64908" lon="6.18915">
        <ele>261.6</ele>
        <time>2021-05-16T09:27:30Z</time>
      </trkpt>
      <trkpt lat="47.64905" lon="6.18909">
        <ele>261.6</ele>
        <time>2021-05-16T09:27:31Z</time>
      </trkpt>
      <trkpt lat="47.64902" lon="6.18904">
        <ele>261.5</ele>
        <time>2021-05-16T09:27:32Z</time>
      </trkpt>
      <trkpt lat="47.64899" lon="6.18898">
        <ele>261.5</ele>
        <time>2021-05-16T09:27:33Z</time>
      </trkpt>
      <trkpt lat="47.64896" lon="6.18893">
        <ele>261.4</ele>
        <time>2021-05-16T09:27:34Z</time>
      </trkpt>
      <trkpt lat="47.64893" lon="6.18887">
        <ele>261.4</ele>
        <time>2021-05-16T09:27:35Z</time>
      </trkpt>
      <trkpt lat="47.6489" lon="6.18882">
        <ele>261.3</ele>
        <time>2021-05-16T09:27:36Z</time>
      </trkpt>
      <trkpt lat="47.64887" lon="6.18877">
        <ele>261.2</ele>
        <time>2021-05-16T09:27:37Z</time>
      </trkpt>
      <trkpt lat="47.64882" lon="6.18866">
        <ele>261.1</ele>
        <time>2021-05-16T09:27:39Z</time>
      </trkpt>
      <trkpt lat="47.64877" lon="6.18855">
        <ele>260.9</ele>
        <time>2021-05-16T09:27:41Z</time>
      </trkpt>
      <trkpt lat="47.64872" lon="6.18845">
        <ele>260.7</ele>
        <time>2021-05-16T09:27:43Z</time>
      </trkpt>
      <trkpt lat="47.64867" lon="6.18834">
        <ele>260.4</ele>
        <time>2021-05-16T09:27:45Z</time>
      </trkpt>
      <trkpt lat="47.64862" lon="6.18823">
        <ele>260</ele>
        <time>2021-05-16T09:27:47Z</time>
      </trkpt>
      <trkpt lat="47.6486" lon="6.18817">
        <ele>259.8</ele>
        <time>2021-05-16T09:27:48Z</time>
      </trkpt>
      <trkpt lat="47.64857" lon="6.18811">
        <ele>259.6</ele>
        <time>2021-05-16T09:27:49Z</time>
      </trkpt>
      <trkpt lat="47.64854" lon="6.18805">
        <ele>259.4</ele>
        <time>2021-05-16T09:27:50Z</time>
      </trkpt>
      <trkpt lat="47.64852" lon="6.18799">
        <ele>259.2</ele>
        <time>2021-05-16T09:27:51Z</time>
      </trkpt>
      <trkpt lat="47.64849" lon="6.18792">
        <ele>259</ele>
        <time>2021-05-16T09:27:52Z</time>
      </trkpt>
      <trkpt lat="47.64846" lon="6.18786">
        <ele>258.8</ele>
        <time>2021-05-16T09:27:53Z</time>
      </trkpt>
      <trkpt lat="47.64843" lon="6.18779">
        <ele>258.6</ele>
        <time>2021-05-16T09:27:54Z</time>
      </trkpt>
      <trkpt lat="47.6484" lon="6.18772">
        <ele>258.4</ele>
        <time>2021-05-16T09:27:55Z</time>
      </trkpt>
      <trkpt lat="47.64837" lon="6.18766">
        <ele>258.2</ele>
        <time>2021-05-16T09:27:56Z</time>
      </trkpt>
      <trkpt lat="47.64834" lon="6.18759">
        <ele>258</ele>
        <time>2021-05-16T09:27:57Z</time>
      </trkpt>
      <trkpt lat="47.64831" lon="6.18753">
        <ele>257.8</ele>
        <time>2021-05-16T09:27:58Z</time>
      </trkpt>
      <trkpt lat="47.64828" lon="6.18746">
        <ele>257.6</ele>
        <time>2021-05-16T09:27:59Z</time>
      </trkpt>
      <trkpt lat="47.64825" lon="6.1874">
        <ele>257.4</ele>
        <time>2021-05-16T09:28:00Z</time>
      </trkpt>
      <trkpt lat="47.64823" lon="6.18734">
        <ele>257.2</ele>
        <time>2021-05-16T09:28:01Z</time>
      </trkpt>
      <trkpt lat="47.6482" lon="6.18727">
        <ele>257</ele>
        <time>2021-05-16T09:28:02Z</time>
      </trkpt>
      <trkpt lat="47.64817" lon="6.18721">
        <ele>256.8</ele>
        <time>2021-05-16T09:28:03Z</time>
      </trkpt>
      <trkpt lat="47.64814" lon="6.18714">
        <ele>256.6</ele>
        <time>2021-05-16T09:28:04Z</time>
      </trkpt>
      <trkpt lat="47.6481" lon="6.18707">
        <ele>256.3</ele>
        <time>2021-05-16T09:28:05Z</time>
      </trkpt>
      <trkpt lat="47.64806" lon="6.18701">
        <ele>256.1</ele>
        <time>2021-05-16T09:28:06Z</time>
      </trkpt>
      <trkpt lat="47.64803" lon="6.18694">
        <ele>255.8</ele>
        <time>2021-05-16T09:28:07Z</time>
      </trkpt>
      <trkpt lat="47.64799" lon="6.18688">
        <ele>255.5</ele>
        <time>2021-05-16T09:28:08Z</time>
      </trkpt>
      <trkpt lat="47.64796" lon="6.18681">
        <ele>255.3</ele>
        <time>2021-05-16T09:28:09Z</time>
      </trkpt>
      <trkpt lat="47.64792" lon="6.18674">
        <ele>255</ele>
        <time>2021-05-16T09:28:10Z</time>
      </trkpt>
      <trkpt lat="47.64789" lon="6.18668">
        <ele>254.8</ele>
        <time>2021-05-16T09:28:11Z</time>
      </trkpt>
      <trkpt lat="47.64785" lon="6.18661">
        <ele>254.6</ele>
        <time>2021-05-16T09:28:12Z</time>
      </trkpt>
      <trkpt lat="47.64781" lon="6.18654">
        <ele>254.5</ele>
        <time>2021-05-16T09:28:13Z</time>
      </trkpt>
      <trkpt lat="47.64778" lon="6.18648">
        <ele>254.5</ele>
        <time>2021-05-16T09:28:14Z</time>
      </trkpt>
      <trkpt lat="47.64774" lon="6.18641">
        <ele>254.4</ele>
        <time>2021-05-16T09:28:15Z</time>
      </trkpt>
      <trkpt lat="47.64771" lon="6.18634">
        <ele>254.4</ele>
        <time>2021-05-16T09:28:16Z</time>
      </trkpt>
      <trkpt lat="47.64768" lon="6.18628">
        <ele>254.4</ele>
        <time>2021-05-16T09:28:17Z</time>
      </trkpt>
      <trkpt lat="47.64765" lon="6.18622">
        <ele>254.4</ele>
        <time>2021-05-16T09:28:18Z</time>
      </trkpt>
      <trkpt lat="47.64761" lon="6.18616">
        <ele>254.4</ele>
        <time>2021-05-16T09:28:19Z</time>
      </trkpt>
      <trkpt lat="47.64758" lon="6.1861">
        <ele>254.4</ele>
        <time>2021-05-16T09:28:20Z</time>
      </trkpt>
      <trkpt lat="47.64755" lon="6.18604">
        <ele>254.5</ele>
        <time>2021-05-16T09:28:21Z</time>
      </trkpt>
      <trkpt lat="47.6475" lon="6.18594">
        <ele>254.6</ele>
        <time>2021-05-16T09:28:23Z</time>
      </trkpt>
      <trkpt lat="47.64744" lon="6.18583">
        <ele>254.4</ele>
        <time>2021-05-16T09:28:25Z</time>
      </trkpt>
      <trkpt lat="47.64739" lon="6.18574">
        <ele>254.3</ele>
        <time>2021-05-16T09:28:27Z</time>
      </trkpt>
      <trkpt lat="47.64733" lon="6.18564">
        <ele>254.1</ele>
        <time>2021-05-16T09:28:29Z</time>
      </trkpt>
      <trkpt lat="47.64728" lon="6.18554">
        <ele>254</ele>
        <time>2021-05-16T09:28:31Z</time>
      </trkpt>
      <trkpt lat="47.64722" lon="6.18544">
        <ele>253.9</ele>
        <time>2021-05-16T09:28:33Z</time>
      </trkpt>
      <trkpt lat="47.64716" lon="6.18534">
        <ele>253.8</ele>
        <time>2021-05-16T09:28:35Z</time>
      </trkpt>
      <trkpt lat="47.64713" lon="6.18529">
        <ele>253.7</ele>
        <time>2021-05-16T09:28:36Z</time>
      </trkpt>
      <trkpt lat="47.64708" lon="6.18518">
        <ele>253.7</ele>
        <time>2021-05-16T09:28:38Z</time>
      </trkpt>
      <trkpt lat="47.64705" lon="6.18512">
        <ele>253.7</ele>
        <time>2021-05-16T09:28:39Z</time>
      </trkpt>
      <trkpt lat="47.64702" lon="6.18507">
        <ele>253.7</ele>
        <time>2021-05-16T09:28:40Z</time>
      </trkpt>
      <trkpt lat="47.64697" lon="6.18497">
        <ele>253.6</ele>
        <time>2021-05-16T09:28:42Z</time>
      </trkpt>
      <trkpt lat="47.64692" lon="6.1849">
        <ele>253.4</ele>
        <time>2021-05-16T09:28:44Z</time>
      </trkpt>
      <trkpt lat="47.64687" lon="6.18483">
        <ele>253.2</ele>
        <time>2021-05-16T09:28:46Z</time>
      </trkpt>
      <trkpt lat="47.64683" lon="6.18476">
        <ele>253.1</ele>
        <time>2021-05-16T09:28:48Z</time>
      </trkpt>
      <trkpt lat="47.64678" lon="6.18469">
        <ele>253</ele>
        <time>2021-05-16T09:28:50Z</time>
      </trkpt>
      <trkpt lat="47.64677" lon="6.18462">
        <ele>253.1</ele>
        <time>2021-05-16T09:28:52Z</time>
      </trkpt>
      <trkpt lat="47.64673" lon="6.18458">
        <ele>253</ele>
        <time>2021-05-16T09:28:53Z</time>
      </trkpt>
      <trkpt lat="47.64669" lon="6.18454">
        <ele>252.9</ele>
        <time>2021-05-16T09:28:54Z</time>
      </trkpt>
      <trkpt lat="47.64665" lon="6.18449">
        <ele>252.8</ele>
        <time>2021-05-16T09:28:55Z</time>
      </trkpt>
      <trkpt lat="47.6466" lon="6.18443">
        <ele>253.1</ele>
        <time>2021-05-16T09:28:57Z</time>
      </trkpt>
      <trkpt lat="47.64656" lon="6.18438">
        <ele>253.3</ele>
        <time>2021-05-16T09:28:59Z</time>
      </trkpt>
      <trkpt lat="47.64651" lon="6.18431">
        <ele>253.6</ele>
        <time>2021-05-16T09:29:01Z</time>
      </trkpt>
      <trkpt lat="47.64647" lon="6.18423">
        <ele>254</ele>
        <time>2021-05-16T09:29:03Z</time>
      </trkpt>
      <trkpt lat="47.64642" lon="6.18417">
        <ele>254.3</ele>
        <time>2021-05-16T09:29:05Z</time>
      </trkpt>
      <trkpt lat="47.64637" lon="6.18412">
        <ele>254.4</ele>
        <time>2021-05-16T09:29:06Z</time>
      </trkpt>
      <trkpt lat="47.64633" lon="6.18408">
        <ele>254.5</ele>
        <time>2021-05-16T09:29:08Z</time>
      </trkpt>
      <trkpt lat="47.64627" lon="6.18401">
        <ele>254.6</ele>
        <time>2021-05-16T09:29:11Z</time>
      </trkpt>
      <trkpt lat="47.64623" lon="6.18397">
        <ele>254.6</ele>
        <time>2021-05-16T09:29:12Z</time>
      </trkpt>
      <trkpt lat="47.64619" lon="6.18392">
        <ele>254.7</ele>
        <time>2021-05-16T09:29:14Z</time>
      </trkpt>
      <trkpt lat="47.64615" lon="6.18387">
        <ele>254.7</ele>
        <time>2021-05-16T09:29:16Z</time>
      </trkpt>
      <trkpt lat="47.64609" lon="6.18381">
        <ele>254.7</ele>
        <time>2021-05-16T09:29:18Z</time>
      </trkpt>
      <trkpt lat="47.64604" lon="6.18375">
        <ele>254.6</ele>
        <time>2021-05-16T09:29:19Z</time>
      </trkpt>
      <trkpt lat="47.646" lon="6.1837">
        <ele>254.6</ele>
        <time>2021-05-16T09:29:22Z</time>
      </trkpt>
      <trkpt lat="47.64596" lon="6.18363">
        <ele>254.5</ele>
        <time>2021-05-16T09:29:23Z</time>
      </trkpt>
      <trkpt lat="47.64592" lon="6.18357">
        <ele>254.4</ele>
        <time>2021-05-16T09:29:25Z</time>
      </trkpt>
      <trkpt lat="47.6459" lon="6.1835">
        <ele>254.3</ele>
        <time>2021-05-16T09:29:27Z</time>
      </trkpt>
      <trkpt lat="47.64587" lon="6.18343">
        <ele>254.2</ele>
        <time>2021-05-16T09:29:29Z</time>
      </trkpt>
      <trkpt lat="47.64584" lon="6.18336">
        <ele>254.1</ele>
        <time>2021-05-16T09:29:30Z</time>
      </trkpt>
      <trkpt lat="47.64582" lon="6.1833">
        <ele>253.5</ele>
        <time>2021-05-16T09:29:32Z</time>
      </trkpt>
      <trkpt lat="47.64579" lon="6.18321">
        <ele>252.5</ele>
        <time>2021-05-16T09:29:33Z</time>
      </trkpt>
      <trkpt lat="47.64575" lon="6.18314">
        <ele>251.5</ele>
        <time>2021-05-16T09:29:35Z</time>
      </trkpt>
      <trkpt lat="47.6457" lon="6.18306">
        <ele>250</ele>
        <time>2021-05-16T09:29:36Z</time>
      </trkpt>
      <trkpt lat="47.64566" lon="6.183">
        <ele>248.9</ele>
        <time>2021-05-16T09:29:38Z</time>
      </trkpt>
      <trkpt lat="47.64562" lon="6.1829">
        <ele>247.4</ele>
        <time>2021-05-16T09:29:39Z</time>
      </trkpt>
      <trkpt lat="47.64559" lon="6.18283">
        <ele>246.2</ele>
        <time>2021-05-16T09:29:40Z</time>
      </trkpt>
      <trkpt lat="47.64556" lon="6.18272">
        <ele>244.7</ele>
        <time>2021-05-16T09:29:41Z</time>
      </trkpt>
      <trkpt lat="47.64553" lon="6.18256">
        <ele>242.4</ele>
        <time>2021-05-16T09:29:43Z</time>
      </trkpt>
      <trkpt lat="47.64551" lon="6.18244">
        <ele>241.1</ele>
        <time>2021-05-16T09:29:45Z</time>
      </trkpt>
      <trkpt lat="47.64551" lon="6.18234">
        <ele>240.3</ele>
        <time>2021-05-16T09:29:47Z</time>
      </trkpt>
      <trkpt lat="47.64551" lon="6.18227">
        <ele>239.8</ele>
        <time>2021-05-16T09:29:48Z</time>
      </trkpt>
      <trkpt lat="47.64552" lon="6.18213">
        <ele>238.9</ele>
        <time>2021-05-16T09:29:48Z</time>
      </trkpt>
      <trkpt lat="47.64553" lon="6.18205">
        <ele>238.5</ele>
        <time>2021-05-16T09:29:49Z</time>
      </trkpt>
      <trkpt lat="47.64554" lon="6.18197">
        <ele>238.2</ele>
        <time>2021-05-16T09:29:50Z</time>
      </trkpt>
      <trkpt lat="47.64555" lon="6.1819">
        <ele>237.9</ele>
        <time>2021-05-16T09:29:51Z</time>
      </trkpt>
      <trkpt lat="47.64556" lon="6.18184">
        <ele>237.6</ele>
        <time>2021-05-16T09:29:52Z</time>
      </trkpt>
      <trkpt lat="47.64557" lon="6.18177">
        <ele>237.4</ele>
        <time>2021-05-16T09:29:53Z</time>
      </trkpt>
      <trkpt lat="47.64559" lon="6.18164">
        <ele>237.1</ele>
        <time>2021-05-16T09:29:55Z</time>
      </trkpt>
      <trkpt lat="47.64562" lon="6.18155">
        <ele>237.4</ele>
        <time>2021-05-16T09:29:58Z</time>
      </trkpt>
      <trkpt lat="47.64565" lon="6.18146">
        <ele>237.7</ele>
        <time>2021-05-16T09:30:01Z</time>
      </trkpt>
      <trkpt lat="47.64566" lon="6.18139">
        <ele>237.8</ele>
        <time>2021-05-16T09:30:02Z</time>
      </trkpt>
      <trkpt lat="47.64565" lon="6.18132">
        <ele>237.5</ele>
        <time>2021-05-16T09:30:05Z</time>
      </trkpt>
      <trkpt lat="47.64562" lon="6.18125">
        <ele>236.6</ele>
        <time>2021-05-16T09:30:07Z</time>
      </trkpt>
      <trkpt lat="47.64559" lon="6.1812">
        <ele>236</ele>
        <time>2021-05-16T09:30:08Z</time>
      </trkpt>
      <trkpt lat="47.64559" lon="6.18106">
        <ele>235.7</ele>
        <time>2021-05-16T09:30:10Z</time>
      </trkpt>
      <trkpt lat="47.64562" lon="6.18098">
        <ele>236</ele>
        <time>2021-05-16T09:30:12Z</time>
      </trkpt>
      <trkpt lat="47.64564" lon="6.18091">
        <ele>236.3</ele>
        <time>2021-05-16T09:30:14Z</time>
      </trkpt>
      <trkpt lat="47.64567" lon="6.18086">
        <ele>236.7</ele>
        <time>2021-05-16T09:30:15Z</time>
      </trkpt>
      <trkpt lat="47.64571" lon="6.18081">
        <ele>237.3</ele>
        <time>2021-05-16T09:30:18Z</time>
      </trkpt>
      <trkpt lat="47.64573" lon="6.18074">
        <ele>237.2</ele>
        <time>2021-05-16T09:30:21Z</time>
      </trkpt>
      <trkpt lat="47.64574" lon="6.18067">
        <ele>236.9</ele>
        <time>2021-05-16T09:30:24Z</time>
      </trkpt>
      <trkpt lat="47.64575" lon="6.1806">
        <ele>236.5</ele>
        <time>2021-05-16T09:30:28Z</time>
      </trkpt>
      <trkpt lat="47.64578" lon="6.18053">
        <ele>236.4</ele>
        <time>2021-05-16T09:30:35Z</time>
      </trkpt>
      <trkpt lat="47.64582" lon="6.18048">
        <ele>236.8</ele>
        <time>2021-05-16T09:30:40Z</time>
      </trkpt>
      <trkpt lat="47.64584" lon="6.18042">
        <ele>236.6</ele>
        <time>2021-05-16T09:30:45Z</time>
      </trkpt>
      <trkpt lat="47.64587" lon="6.18035">
        <ele>236.1</ele>
        <time>2021-05-16T09:30:50Z</time>
      </trkpt>
      <trkpt lat="47.64591" lon="6.18032">
        <ele>236</ele>
        <time>2021-05-16T09:30:54Z</time>
      </trkpt>
      <trkpt lat="47.64592" lon="6.18025">
        <ele>235.5</ele>
        <time>2021-05-16T09:30:59Z</time>
      </trkpt>
      <trkpt lat="47.64597" lon="6.18024">
        <ele>235.6</ele>
        <time>2021-05-16T09:31:05Z</time>
      </trkpt>
      <trkpt lat="47.64602" lon="6.18021">
        <ele>235.4</ele>
        <time>2021-05-16T09:31:10Z</time>
      </trkpt>
      <trkpt lat="47.64607" lon="6.18021">
        <ele>235.7</ele>
        <time>2021-05-16T09:31:18Z</time>
      </trkpt>
      <trkpt lat="47.64611" lon="6.18021">
        <ele>235.9</ele>
        <time>2021-05-16T09:31:21Z</time>
      </trkpt>
      <trkpt lat="47.64616" lon="6.18018">
        <ele>235.7</ele>
        <time>2021-05-16T09:31:25Z</time>
      </trkpt>
      <trkpt lat="47.64619" lon="6.18014">
        <ele>235.4</ele>
        <time>2021-05-16T09:31:31Z</time>
      </trkpt>
      <trkpt lat="47.64624" lon="6.18015">
        <ele>235.7</ele>
        <time>2021-05-16T09:31:37Z</time>
      </trkpt>
      <trkpt lat="47.64628" lon="6.18019">
        <ele>236.3</ele>
        <time>2021-05-16T09:31:42Z</time>
      </trkpt>
      <trkpt lat="47.64632" lon="6.18022">
        <ele>236.8</ele>
        <time>2021-05-16T09:31:45Z</time>
      </trkpt>
      <trkpt lat="47.64636" lon="6.18027">
        <ele>237.6</ele>
        <time>2021-05-16T09:31:48Z</time>
      </trkpt>
      <trkpt lat="47.64641" lon="6.1803">
        <ele>238.1</ele>
        <time>2021-05-16T09:31:53Z</time>
      </trkpt>
      <trkpt lat="47.64646" lon="6.18035">
        <ele>239</ele>
        <time>2021-05-16T09:31:56Z</time>
      </trkpt>
      <trkpt lat="47.6465" lon="6.18041">
        <ele>240</ele>
        <time>2021-05-16T09:31:59Z</time>
      </trkpt>
      <trkpt lat="47.64654" lon="6.18044">
        <ele>240.7</ele>
        <time>2021-05-16T09:32:03Z</time>
      </trkpt>
      <trkpt lat="47.6466" lon="6.18047">
        <ele>241.4</ele>
        <time>2021-05-16T09:32:08Z</time>
      </trkpt>
      <trkpt lat="47.64664" lon="6.18052">
        <ele>242.2</ele>
        <time>2021-05-16T09:32:09Z</time>
      </trkpt>
      <trkpt lat="47.64667" lon="6.18058">
        <ele>243.3</ele>
        <time>2021-05-16T09:32:13Z</time>
      </trkpt>
      <trkpt lat="47.6467" lon="6.18064">
        <ele>243.7</ele>
        <time>2021-05-16T09:32:17Z</time>
      </trkpt>
      <trkpt lat="47.64673" lon="6.18069">
        <ele>244</ele>
        <time>2021-05-16T09:32:21Z</time>
      </trkpt>
      <trkpt lat="47.64678" lon="6.18073">
        <ele>244</ele>
        <time>2021-05-16T09:32:25Z</time>
      </trkpt>
      <trkpt lat="47.64682" lon="6.18078">
        <ele>244.1</ele>
        <time>2021-05-16T09:32:29Z</time>
      </trkpt>
      <trkpt lat="47.64684" lon="6.18071">
        <ele>242.8</ele>
        <time>2021-05-16T09:33:16Z</time>
      </trkpt>
      <trkpt lat="47.64681" lon="6.18066">
        <ele>242.5</ele>
        <time>2021-05-16T09:33:19Z</time>
      </trkpt>
      <trkpt lat="47.64676" lon="6.18064">
        <ele>242.9</ele>
        <time>2021-05-16T09:33:24Z</time>
      </trkpt>
      <trkpt lat="47.64672" lon="6.18059">
        <ele>242.6</ele>
        <time>2021-05-16T09:33:27Z</time>
      </trkpt>
      <trkpt lat="47.64668" lon="6.18054">
        <ele>242.6</ele>
        <time>2021-05-16T09:33:30Z</time>
      </trkpt>
      <trkpt lat="47.64665" lon="6.1805">
        <ele>242.1</ele>
        <time>2021-05-16T09:33:33Z</time>
      </trkpt>
      <trkpt lat="47.64662" lon="6.18044">
        <ele>241.1</ele>
        <time>2021-05-16T09:33:35Z</time>
      </trkpt>
      <trkpt lat="47.64658" lon="6.18037">
        <ele>240</ele>
        <time>2021-05-16T09:33:38Z</time>
      </trkpt>
      <trkpt lat="47.64654" lon="6.18033">
        <ele>239.1</ele>
        <time>2021-05-16T09:33:41Z</time>
      </trkpt>
      <trkpt lat="47.6465" lon="6.18029">
        <ele>238.4</ele>
        <time>2021-05-16T09:33:44Z</time>
      </trkpt>
      <trkpt lat="47.64645" lon="6.18025">
        <ele>237.6</ele>
        <time>2021-05-16T09:33:49Z</time>
      </trkpt>
      <trkpt lat="47.64641" lon="6.18021">
        <ele>237.1</ele>
        <time>2021-05-16T09:33:52Z</time>
      </trkpt>
      <trkpt lat="47.64635" lon="6.18019">
        <ele>236.5</ele>
        <time>2021-05-16T09:33:54Z</time>
      </trkpt>
      <trkpt lat="47.64629" lon="6.18018">
        <ele>236.2</ele>
        <time>2021-05-16T09:33:57Z</time>
      </trkpt>
      <trkpt lat="47.64624" lon="6.1802">
        <ele>236.2</ele>
        <time>2021-05-16T09:33:59Z</time>
      </trkpt>
      <trkpt lat="47.64618" lon="6.18022">
        <ele>236.2</ele>
        <time>2021-05-16T09:34:02Z</time>
      </trkpt>
      <trkpt lat="47.64613" lon="6.18024">
        <ele>236.3</ele>
        <time>2021-05-16T09:34:04Z</time>
      </trkpt>
      <trkpt lat="47.64606" lon="6.18029">
        <ele>236.5</ele>
        <time>2021-05-16T09:34:07Z</time>
      </trkpt>
      <trkpt lat="47.64602" lon="6.18034">
        <ele>236.7</ele>
        <time>2021-05-16T09:34:08Z</time>
      </trkpt>
      <trkpt lat="47.64595" lon="6.18042">
        <ele>237.2</ele>
        <time>2021-05-16T09:34:09Z</time>
      </trkpt>
      <trkpt lat="47.6459" lon="6.18051">
        <ele>237.7</ele>
        <time>2021-05-16T09:34:11Z</time>
      </trkpt>
      <trkpt lat="47.64584" lon="6.1806">
        <ele>238.1</ele>
        <time>2021-05-16T09:34:11Z</time>
      </trkpt>
      <trkpt lat="47.64578" lon="6.1807">
        <ele>237.9</ele>
        <time>2021-05-16T09:34:13Z</time>
      </trkpt>
      <trkpt lat="47.64574" lon="6.18078">
        <ele>237.7</ele>
        <time>2021-05-16T09:34:15Z</time>
      </trkpt>
      <trkpt lat="47.6457" lon="6.18084">
        <ele>237.4</ele>
        <time>2021-05-16T09:34:17Z</time>
      </trkpt>
      <trkpt lat="47.64566" lon="6.18092">
        <ele>236.8</ele>
        <time>2021-05-16T09:34:19Z</time>
      </trkpt>
      <trkpt lat="47.64562" lon="6.18101">
        <ele>236</ele>
        <time>2021-05-16T09:34:21Z</time>
      </trkpt>
      <trkpt lat="47.64557" lon="6.18106">
        <ele>235.1</ele>
        <time>2021-05-16T09:34:23Z</time>
      </trkpt>
      <trkpt lat="47.6455" lon="6.18104">
        <ele>233.7</ele>
        <time>2021-05-16T09:34:26Z</time>
      </trkpt>
      <trkpt lat="47.64548" lon="6.18094">
        <ele>233</ele>
        <time>2021-05-16T09:34:28Z</time>
      </trkpt>
      <trkpt lat="47.64547" lon="6.18081">
        <ele>232.4</ele>
        <time>2021-05-16T09:34:30Z</time>
      </trkpt>
      <trkpt lat="47.64546" lon="6.18067">
        <ele>231.5</ele>
        <time>2021-05-16T09:34:32Z</time>
      </trkpt>
      <trkpt lat="47.64545" lon="6.18059">
        <ele>231</ele>
        <time>2021-05-16T09:34:33Z</time>
      </trkpt>
      <trkpt lat="47.64543" lon="6.18051">
        <ele>230.4</ele>
        <time>2021-05-16T09:34:34Z</time>
      </trkpt>
      <trkpt lat="47.64541" lon="6.18045">
        <ele>229.8</ele>
        <time>2021-05-16T09:34:35Z</time>
      </trkpt>
      <trkpt lat="47.64539" lon="6.18035">
        <ele>229</ele>
        <time>2021-05-16T09:34:37Z</time>
      </trkpt>
      <trkpt lat="47.64535" lon="6.1803">
        <ele>228.3</ele>
        <time>2021-05-16T09:34:39Z</time>
      </trkpt>
      <trkpt lat="47.6453" lon="6.1803">
        <ele>227.5</ele>
        <time>2021-05-16T09:34:41Z</time>
      </trkpt>
      <trkpt lat="47.64524" lon="6.18036">
        <ele>226.7</ele>
        <time>2021-05-16T09:34:43Z</time>
      </trkpt>
      <trkpt lat="47.64519" lon="6.1804">
        <ele>226.1</ele>
        <time>2021-05-16T09:34:44Z</time>
      </trkpt>
      <trkpt lat="47.64514" lon="6.18042">
        <ele>225.3</ele>
        <time>2021-05-16T09:34:45Z</time>
      </trkpt>
      <trkpt lat="47.64508" lon="6.18043">
        <ele>224.2</ele>
        <time>2021-05-16T09:34:46Z</time>
      </trkpt>
      <trkpt lat="47.645" lon="6.18041">
        <ele>223.1</ele>
        <time>2021-05-16T09:34:47Z</time>
      </trkpt>
      <trkpt lat="47.64494" lon="6.18038">
        <ele>223</ele>
        <time>2021-05-16T09:34:48Z</time>
      </trkpt>
      <trkpt lat="47.64488" lon="6.18035">
        <ele>222.9</ele>
        <time>2021-05-16T09:34:49Z</time>
      </trkpt>
      <trkpt lat="47.64482" lon="6.18031">
        <ele>222.9</ele>
        <time>2021-05-16T09:34:50Z</time>
      </trkpt>
      <trkpt lat="47.64478" lon="6.18028">
        <ele>222.8</ele>
        <time>2021-05-16T09:34:51Z</time>
      </trkpt>
      <trkpt lat="47.64473" lon="6.18025">
        <ele>222.8</ele>
        <time>2021-05-16T09:34:53Z</time>
      </trkpt>
      <trkpt lat="47.64469" lon="6.18029">
        <ele>222.8</ele>
        <time>2021-05-16T09:34:55Z</time>
      </trkpt>
      <trkpt lat="47.64467" lon="6.18038">
        <ele>222.8</ele>
        <time>2021-05-16T09:34:57Z</time>
      </trkpt>
      <trkpt lat="47.64465" lon="6.18045">
        <ele>222.8</ele>
        <time>2021-05-16T09:35:03Z</time>
      </trkpt>
      <trkpt lat="47.64466" lon="6.18053">
        <ele>222.8</ele>
        <time>2021-05-16T09:35:08Z</time>
      </trkpt>
      <trkpt lat="47.64466" lon="6.18059">
        <ele>222.9</ele>
        <time>2021-05-16T09:35:37Z</time>
      </trkpt>
      <trkpt lat="47.64465" lon="6.18066">
        <ele>222.9</ele>
        <time>2021-05-16T09:35:58Z</time>
      </trkpt>
      <trkpt lat="47.6447" lon="6.18061">
        <ele>222.9</ele>
        <time>2021-05-16T09:36:23Z</time>
      </trkpt>
      <trkpt lat="47.64472" lon="6.18054">
        <ele>222.9</ele>
        <time>2021-05-16T09:36:26Z</time>
      </trkpt>
      <trkpt lat="47.64473" lon="6.18047">
        <ele>222.9</ele>
        <time>2021-05-16T09:36:28Z</time>
      </trkpt>
      <trkpt lat="47.64479" lon="6.18046">
        <ele>222.9</ele>
        <time>2021-05-16T09:36:35Z</time>
      </trkpt>
      <trkpt lat="47.64485" lon="6.18048">
        <ele>222.9</ele>
        <time>2021-05-16T09:36:38Z</time>
      </trkpt>
      <trkpt lat="47.64491" lon="6.1805">
        <ele>223</ele>
        <time>2021-05-16T09:36:40Z</time>
      </trkpt>
      <trkpt lat="47.64496" lon="6.18052">
        <ele>223</ele>
        <time>2021-05-16T09:36:42Z</time>
      </trkpt>
      <trkpt lat="47.64503" lon="6.18052">
        <ele>223.5</ele>
        <time>2021-05-16T09:36:45Z</time>
      </trkpt>
      <trkpt lat="47.64508" lon="6.18053">
        <ele>224.4</ele>
        <time>2021-05-16T09:36:47Z</time>
      </trkpt>
      <trkpt lat="47.64512" lon="6.18059">
        <ele>225.2</ele>
        <time>2021-05-16T09:36:48Z</time>
      </trkpt>
      <trkpt lat="47.64514" lon="6.18067">
        <ele>225.6</ele>
        <time>2021-05-16T09:36:51Z</time>
      </trkpt>
      <trkpt lat="47.64512" lon="6.18077">
        <ele>225.4</ele>
        <time>2021-05-16T09:36:54Z</time>
      </trkpt>
      <trkpt lat="47.64511" lon="6.18084">
        <ele>225.2</ele>
        <time>2021-05-16T09:36:55Z</time>
      </trkpt>
      <trkpt lat="47.64509" lon="6.18091">
        <ele>225</ele>
        <time>2021-05-16T09:36:57Z</time>
      </trkpt>
      <trkpt lat="47.64507" lon="6.181">
        <ele>224.9</ele>
        <time>2021-05-16T09:36:58Z</time>
      </trkpt>
      <trkpt lat="47.64506" lon="6.18106">
        <ele>224.7</ele>
        <time>2021-05-16T09:36:59Z</time>
      </trkpt>
      <trkpt lat="47.64504" lon="6.18114">
        <ele>224.6</ele>
        <time>2021-05-16T09:37:01Z</time>
      </trkpt>
      <trkpt lat="47.64503" lon="6.18122">
        <ele>224.6</ele>
        <time>2021-05-16T09:37:02Z</time>
      </trkpt>
      <trkpt lat="47.64502" lon="6.18132">
        <ele>224.5</ele>
        <time>2021-05-16T09:37:03Z</time>
      </trkpt>
      <trkpt lat="47.645" lon="6.18141">
        <ele>224.4</ele>
        <time>2021-05-16T09:37:05Z</time>
      </trkpt>
      <trkpt lat="47.645" lon="6.18149">
        <ele>224.6</ele>
        <time>2021-05-16T09:37:06Z</time>
      </trkpt>
      <trkpt lat="47.645" lon="6.18162">
        <ele>224.9</ele>
        <time>2021-05-16T09:37:08Z</time>
      </trkpt>
      <trkpt lat="47.64501" lon="6.18173">
        <ele>225.6</ele>
        <time>2021-05-16T09:37:09Z</time>
      </trkpt>
      <trkpt lat="47.64503" lon="6.1818">
        <ele>226.6</ele>
        <time>2021-05-16T09:37:11Z</time>
      </trkpt>
      <trkpt lat="47.64505" lon="6.18187">
        <ele>227.5</ele>
        <time>2021-05-16T09:37:12Z</time>
      </trkpt>
      <trkpt lat="47.64504" lon="6.18199">
        <ele>228.2</ele>
        <time>2021-05-16T09:37:15Z</time>
      </trkpt>
      <trkpt lat="47.64502" lon="6.18208">
        <ele>228.4</ele>
        <time>2021-05-16T09:37:17Z</time>
      </trkpt>
      <trkpt lat="47.645" lon="6.18215">
        <ele>228.5</ele>
        <time>2021-05-16T09:37:19Z</time>
      </trkpt>
      <trkpt lat="47.64499" lon="6.18222">
        <ele>228.8</ele>
        <time>2021-05-16T09:37:21Z</time>
      </trkpt>
      <trkpt lat="47.64495" lon="6.1823">
        <ele>229.2</ele>
        <time>2021-05-16T09:37:24Z</time>
      </trkpt>
      <trkpt lat="47.64492" lon="6.18236">
        <ele>229.3</ele>
        <time>2021-05-16T09:37:27Z</time>
      </trkpt>
      <trkpt lat="47.64488" lon="6.18244">
        <ele>229.4</ele>
        <time>2021-05-16T09:37:29Z</time>
      </trkpt>
      <trkpt lat="47.64483" lon="6.18256">
        <ele>230</ele>
        <time>2021-05-16T09:37:32Z</time>
      </trkpt>
      <trkpt lat="47.6448" lon="6.18262">
        <ele>230.4</ele>
        <time>2021-05-16T09:37:33Z</time>
      </trkpt>
      <trkpt lat="47.64476" lon="6.18269">
        <ele>230.8</ele>
        <time>2021-05-16T09:37:35Z</time>
      </trkpt>
      <trkpt lat="47.64472" lon="6.18275">
        <ele>231.2</ele>
        <time>2021-05-16T09:37:37Z</time>
      </trkpt>
      <trkpt lat="47.64468" lon="6.1828">
        <ele>231.2</ele>
        <time>2021-05-16T09:37:42Z</time>
      </trkpt>
      <trkpt lat="47.64463" lon="6.1828">
        <ele>230.6</ele>
        <time>2021-05-16T09:37:47Z</time>
      </trkpt>
      <trkpt lat="47.64459" lon="6.18283">
        <ele>230.4</ele>
        <time>2021-05-16T09:38:58Z</time>
      </trkpt>
      <trkpt lat="47.64454" lon="6.18288">
        <ele>230.3</ele>
        <time>2021-05-16T09:39:01Z</time>
      </trkpt>
      <trkpt lat="47.64451" lon="6.18293">
        <ele>230.2</ele>
        <time>2021-05-16T09:39:02Z</time>
      </trkpt>
      <trkpt lat="47.64447" lon="6.18303">
        <ele>230.8</ele>
        <time>2021-05-16T09:39:05Z</time>
      </trkpt>
      <trkpt lat="47.64447" lon="6.18311">
        <ele>231.5</ele>
        <time>2021-05-16T09:39:07Z</time>
      </trkpt>
      <trkpt lat="47.64446" lon="6.18319">
        <ele>232.1</ele>
        <time>2021-05-16T09:39:10Z</time>
      </trkpt>
      <trkpt lat="47.64443" lon="6.18325">
        <ele>232.3</ele>
        <time>2021-05-16T09:39:12Z</time>
      </trkpt>
      <trkpt lat="47.6444" lon="6.18332">
        <ele>232.4</ele>
        <time>2021-05-16T09:39:16Z</time>
      </trkpt>
      <trkpt lat="47.64444" lon="6.18328">
        <ele>232.8</ele>
        <time>2021-05-16T09:39:26Z</time>
      </trkpt>
      <trkpt lat="47.64451" lon="6.18328">
        <ele>234.1</ele>
        <time>2021-05-16T09:39:38Z</time>
      </trkpt>
      <trkpt lat="47.64455" lon="6.18329">
        <ele>235</ele>
        <time>2021-05-16T09:39:41Z</time>
      </trkpt>
      <trkpt lat="47.6446" lon="6.18331">
        <ele>236.1</ele>
        <time>2021-05-16T09:39:45Z</time>
      </trkpt>
    </trkseg>
  </trk>
</gpx>